<?xml version="1.0" encoding="UTF-8" standalone="no" ?>
<gpx xmlns="http://www.topografix.com/GPX/1/1" xmlns:xsi="http://www.w3.org/2001/XMLSchema-instance" xsi:schemaLocation="http://www.topografix.com/GPX/1/1 http://www.topografix.com/GPX/1/1/gpx.xsd" version="1.1" creator="VisuGPX - https://www.visugpx.com">
  <metadata>
    <name>Boucle Saint-Julien le Montagnier</name>
    <desc><![CDATA[Jolie balade variée sans difficultés à associer bien sûr à la visite du très beau village de Saint-Julien le Montagnier.]]></desc>
  </metadata>
  <trk>
    <name><![CDATA[07/11/2022 10:09:36  Boucle Saint-Julien le Montagnier]]></name>
    <trkseg>
      <trkpt lat="43.68936" lon="5.90891">
        <ele>549</ele>
        <time>2022-11-07T09:09:36Z</time>
      </trkpt>
      <trkpt lat="43.68936" lon="5.90891">
        <ele>549</ele>
        <time>2022-11-07T09:09:37Z</time>
      </trkpt>
      <trkpt lat="43.68939" lon="5.90891">
        <ele>549</ele>
        <time>2022-11-07T09:10:10Z</time>
      </trkpt>
      <trkpt lat="43.68939" lon="5.90889">
        <ele>549</ele>
        <time>2022-11-07T09:11:08Z</time>
      </trkpt>
      <trkpt lat="43.68949" lon="5.90867">
        <ele>549.20001220703</ele>
        <time>2022-11-07T09:11:27Z</time>
      </trkpt>
      <trkpt lat="43.68959" lon="5.90854">
        <ele>549.59997558594</ele>
        <time>2022-11-07T09:11:42Z</time>
      </trkpt>
      <trkpt lat="43.6896" lon="5.90847">
        <ele>550</ele>
        <time>2022-11-07T09:12:04Z</time>
      </trkpt>
      <trkpt lat="43.6896" lon="5.90845">
        <ele>550</ele>
        <time>2022-11-07T09:12:05Z</time>
      </trkpt>
      <trkpt lat="43.68961" lon="5.90843">
        <ele>550</ele>
        <time>2022-11-07T09:12:07Z</time>
      </trkpt>
      <trkpt lat="43.68967" lon="5.90822">
        <ele>550</ele>
        <time>2022-11-07T09:12:24Z</time>
      </trkpt>
      <trkpt lat="43.68976" lon="5.90804">
        <ele>551.40002441406</ele>
        <time>2022-11-07T09:12:39Z</time>
      </trkpt>
      <trkpt lat="43.68978" lon="5.908">
        <ele>551.79998779297</ele>
        <time>2022-11-07T09:12:43Z</time>
      </trkpt>
      <trkpt lat="43.6899" lon="5.90788">
        <ele>553.59997558594</ele>
        <time>2022-11-07T09:12:59Z</time>
      </trkpt>
      <trkpt lat="43.69004" lon="5.90784">
        <ele>555.40002441406</ele>
        <time>2022-11-07T09:13:16Z</time>
      </trkpt>
      <trkpt lat="43.69018" lon="5.90781">
        <ele>558</ele>
        <time>2022-11-07T09:13:34Z</time>
      </trkpt>
      <trkpt lat="43.69025" lon="5.90777">
        <ele>559</ele>
        <time>2022-11-07T09:13:45Z</time>
      </trkpt>
      <trkpt lat="43.69033" lon="5.90772">
        <ele>560.40002441406</ele>
        <time>2022-11-07T09:13:58Z</time>
      </trkpt>
      <trkpt lat="43.69041" lon="5.90768">
        <ele>561.40002441406</ele>
        <time>2022-11-07T09:14:07Z</time>
      </trkpt>
      <trkpt lat="43.69052" lon="5.90759">
        <ele>563.59997558594</ele>
        <time>2022-11-07T09:14:25Z</time>
      </trkpt>
      <trkpt lat="43.69061" lon="5.90754">
        <ele>566</ele>
        <time>2022-11-07T09:14:44Z</time>
      </trkpt>
      <trkpt lat="43.69063" lon="5.90752">
        <ele>566.79998779297</ele>
        <time>2022-11-07T09:14:50Z</time>
      </trkpt>
      <trkpt lat="43.69065" lon="5.90748">
        <ele>566.79998779297</ele>
        <time>2022-11-07T09:14:53Z</time>
      </trkpt>
      <trkpt lat="43.69079" lon="5.90738">
        <ele>567.20001220703</ele>
        <time>2022-11-07T09:15:09Z</time>
      </trkpt>
      <trkpt lat="43.69095" lon="5.90729">
        <ele>567.59997558594</ele>
        <time>2022-11-07T09:15:25Z</time>
      </trkpt>
      <trkpt lat="43.69107" lon="5.90717">
        <ele>568.40002441406</ele>
        <time>2022-11-07T09:15:41Z</time>
      </trkpt>
      <trkpt lat="43.69111" lon="5.9071">
        <ele>568.40002441406</ele>
        <time>2022-11-07T09:15:49Z</time>
      </trkpt>
      <trkpt lat="43.69131" lon="5.90682">
        <ele>567.40002441406</ele>
        <time>2022-11-07T09:16:14Z</time>
      </trkpt>
      <trkpt lat="43.69144" lon="5.90657">
        <ele>567</ele>
        <time>2022-11-07T09:16:32Z</time>
      </trkpt>
      <trkpt lat="43.69145" lon="5.90653">
        <ele>566.79998779297</ele>
        <time>2022-11-07T09:16:34Z</time>
      </trkpt>
      <trkpt lat="43.69147" lon="5.90644">
        <ele>566.20001220703</ele>
        <time>2022-11-07T09:16:39Z</time>
      </trkpt>
      <trkpt lat="43.69151" lon="5.90636">
        <ele>566</ele>
        <time>2022-11-07T09:16:45Z</time>
      </trkpt>
      <trkpt lat="43.69156" lon="5.90632">
        <ele>565.79998779297</ele>
        <time>2022-11-07T09:16:49Z</time>
      </trkpt>
      <trkpt lat="43.69167" lon="5.90624">
        <ele>565.59997558594</ele>
        <time>2022-11-07T09:17:03Z</time>
      </trkpt>
      <trkpt lat="43.69183" lon="5.90619">
        <ele>565.40002441406</ele>
        <time>2022-11-07T09:17:12Z</time>
      </trkpt>
      <trkpt lat="43.69189" lon="5.90615">
        <ele>565.20001220703</ele>
        <time>2022-11-07T09:17:18Z</time>
      </trkpt>
      <trkpt lat="43.692" lon="5.90608">
        <ele>564.20001220703</ele>
        <time>2022-11-07T09:17:27Z</time>
      </trkpt>
      <trkpt lat="43.69208" lon="5.90601">
        <ele>563</ele>
        <time>2022-11-07T09:17:41Z</time>
      </trkpt>
      <trkpt lat="43.6923" lon="5.90587">
        <ele>562.20001220703</ele>
        <time>2022-11-07T09:18:05Z</time>
      </trkpt>
      <trkpt lat="43.69234" lon="5.90579">
        <ele>561.79998779297</ele>
        <time>2022-11-07T09:18:17Z</time>
      </trkpt>
      <trkpt lat="43.69243" lon="5.90572">
        <ele>560</ele>
        <time>2022-11-07T09:18:35Z</time>
      </trkpt>
      <trkpt lat="43.69243" lon="5.90572">
        <ele>560</ele>
        <time>2022-11-07T09:18:36Z</time>
      </trkpt>
      <trkpt lat="43.69249" lon="5.90565">
        <ele>559.20001220703</ele>
        <time>2022-11-07T09:18:59Z</time>
      </trkpt>
      <trkpt lat="43.69251" lon="5.90563">
        <ele>559</ele>
        <time>2022-11-07T09:19:42Z</time>
      </trkpt>
      <trkpt lat="43.69255" lon="5.90565">
        <ele>559.20001220703</ele>
        <time>2022-11-07T09:20:04Z</time>
      </trkpt>
      <trkpt lat="43.69241" lon="5.90559">
        <ele>558.79998779297</ele>
        <time>2022-11-07T09:20:22Z</time>
      </trkpt>
      <trkpt lat="43.69238" lon="5.90553">
        <ele>558</ele>
        <time>2022-11-07T09:20:30Z</time>
      </trkpt>
      <trkpt lat="43.69234" lon="5.90543">
        <ele>555.40002441406</ele>
        <time>2022-11-07T09:20:46Z</time>
      </trkpt>
      <trkpt lat="43.69226" lon="5.90538">
        <ele>553.40002441406</ele>
        <time>2022-11-07T09:21:02Z</time>
      </trkpt>
      <trkpt lat="43.69219" lon="5.90523">
        <ele>550.20001220703</ele>
        <time>2022-11-07T09:21:21Z</time>
      </trkpt>
      <trkpt lat="43.69208" lon="5.90515">
        <ele>547.20001220703</ele>
        <time>2022-11-07T09:21:38Z</time>
      </trkpt>
      <trkpt lat="43.69197" lon="5.90505">
        <ele>544.59997558594</ele>
        <time>2022-11-07T09:21:58Z</time>
      </trkpt>
      <trkpt lat="43.69186" lon="5.90492">
        <ele>541.79998779297</ele>
        <time>2022-11-07T09:22:16Z</time>
      </trkpt>
      <trkpt lat="43.69177" lon="5.90489">
        <ele>539.20001220703</ele>
        <time>2022-11-07T09:22:31Z</time>
      </trkpt>
      <trkpt lat="43.69176" lon="5.90475">
        <ele>536</ele>
        <time>2022-11-07T09:22:50Z</time>
      </trkpt>
      <trkpt lat="43.69181" lon="5.9046">
        <ele>533.59997558594</ele>
        <time>2022-11-07T09:23:07Z</time>
      </trkpt>
      <trkpt lat="43.69172" lon="5.90454">
        <ele>531</ele>
        <time>2022-11-07T09:23:26Z</time>
      </trkpt>
      <trkpt lat="43.69163" lon="5.90442">
        <ele>527.79998779297</ele>
        <time>2022-11-07T09:23:45Z</time>
      </trkpt>
      <trkpt lat="43.69167" lon="5.90432">
        <ele>524.79998779297</ele>
        <time>2022-11-07T09:24:02Z</time>
      </trkpt>
      <trkpt lat="43.69159" lon="5.90416">
        <ele>521.79998779297</ele>
        <time>2022-11-07T09:24:23Z</time>
      </trkpt>
      <trkpt lat="43.6915" lon="5.90398">
        <ele>518.79998779297</ele>
        <time>2022-11-07T09:24:39Z</time>
      </trkpt>
      <trkpt lat="43.69143" lon="5.90381">
        <ele>516.40002441406</ele>
        <time>2022-11-07T09:24:55Z</time>
      </trkpt>
      <trkpt lat="43.69138" lon="5.90363">
        <ele>514.59997558594</ele>
        <time>2022-11-07T09:25:10Z</time>
      </trkpt>
      <trkpt lat="43.69139" lon="5.90362">
        <ele>514.40002441406</ele>
        <time>2022-11-07T09:25:12Z</time>
      </trkpt>
      <trkpt lat="43.69137" lon="5.90359">
        <ele>514.20001220703</ele>
        <time>2022-11-07T09:25:14Z</time>
      </trkpt>
      <trkpt lat="43.69137" lon="5.90344">
        <ele>512.20001220703</ele>
        <time>2022-11-07T09:25:30Z</time>
      </trkpt>
      <trkpt lat="43.69137" lon="5.90328">
        <ele>511</ele>
        <time>2022-11-07T09:25:40Z</time>
      </trkpt>
      <trkpt lat="43.69138" lon="5.90312">
        <ele>509.79998779297</ele>
        <time>2022-11-07T09:25:51Z</time>
      </trkpt>
      <trkpt lat="43.69139" lon="5.90301">
        <ele>509.20001220703</ele>
        <time>2022-11-07T09:25:57Z</time>
      </trkpt>
      <trkpt lat="43.69139" lon="5.90293">
        <ele>508.79998779297</ele>
        <time>2022-11-07T09:26:03Z</time>
      </trkpt>
      <trkpt lat="43.69138" lon="5.9027">
        <ele>508</ele>
        <time>2022-11-07T09:26:19Z</time>
      </trkpt>
      <trkpt lat="43.69128" lon="5.90239">
        <ele>506.79998779297</ele>
        <time>2022-11-07T09:26:42Z</time>
      </trkpt>
      <trkpt lat="43.69123" lon="5.90215">
        <ele>506.39999389648</ele>
        <time>2022-11-07T09:26:59Z</time>
      </trkpt>
      <trkpt lat="43.69132" lon="5.90188">
        <ele>506</ele>
        <time>2022-11-07T09:27:18Z</time>
      </trkpt>
      <trkpt lat="43.69143" lon="5.90171">
        <ele>506.20001220703</ele>
        <time>2022-11-07T09:27:32Z</time>
      </trkpt>
      <trkpt lat="43.69154" lon="5.90137">
        <ele>506.60000610352</ele>
        <time>2022-11-07T09:27:53Z</time>
      </trkpt>
      <trkpt lat="43.69151" lon="5.90098">
        <ele>507.79998779297</ele>
        <time>2022-11-07T09:28:13Z</time>
      </trkpt>
      <trkpt lat="43.69139" lon="5.90071">
        <ele>507.20001220703</ele>
        <time>2022-11-07T09:28:32Z</time>
      </trkpt>
      <trkpt lat="43.6913" lon="5.90046">
        <ele>505.79998779297</ele>
        <time>2022-11-07T09:28:48Z</time>
      </trkpt>
      <trkpt lat="43.69125" lon="5.90024">
        <ele>503.39999389648</ele>
        <time>2022-11-07T09:29:05Z</time>
      </trkpt>
      <trkpt lat="43.69126" lon="5.89993">
        <ele>502</ele>
        <time>2022-11-07T09:29:27Z</time>
      </trkpt>
      <trkpt lat="43.69133" lon="5.89966">
        <ele>501.60000610352</ele>
        <time>2022-11-07T09:29:45Z</time>
      </trkpt>
      <trkpt lat="43.69135" lon="5.89934">
        <ele>501.20001220703</ele>
        <time>2022-11-07T09:30:03Z</time>
      </trkpt>
      <trkpt lat="43.69136" lon="5.89923">
        <ele>501</ele>
        <time>2022-11-07T09:30:11Z</time>
      </trkpt>
      <trkpt lat="43.6913" lon="5.89904">
        <ele>500.60000610352</ele>
        <time>2022-11-07T09:30:27Z</time>
      </trkpt>
      <trkpt lat="43.69128" lon="5.89899">
        <ele>500</ele>
        <time>2022-11-07T09:30:53Z</time>
      </trkpt>
      <trkpt lat="43.69129" lon="5.89895">
        <ele>500</ele>
        <time>2022-11-07T09:31:04Z</time>
      </trkpt>
      <trkpt lat="43.69129" lon="5.89884">
        <ele>499.60000610352</ele>
        <time>2022-11-07T09:31:21Z</time>
      </trkpt>
      <trkpt lat="43.69128" lon="5.89879">
        <ele>498.79998779297</ele>
        <time>2022-11-07T09:31:42Z</time>
      </trkpt>
      <trkpt lat="43.6913" lon="5.89877">
        <ele>498.79998779297</ele>
        <time>2022-11-07T09:32:19Z</time>
      </trkpt>
      <trkpt lat="43.69129" lon="5.89878">
        <ele>498.60000610352</ele>
        <time>2022-11-07T09:32:37Z</time>
      </trkpt>
      <trkpt lat="43.69127" lon="5.89885">
        <ele>499</ele>
        <time>2022-11-07T09:33:13Z</time>
      </trkpt>
      <trkpt lat="43.69126" lon="5.89888">
        <ele>499</ele>
        <time>2022-11-07T09:34:04Z</time>
      </trkpt>
      <trkpt lat="43.69125" lon="5.8989">
        <ele>499</ele>
        <time>2022-11-07T09:34:57Z</time>
      </trkpt>
      <trkpt lat="43.69126" lon="5.89889">
        <ele>498.79998779297</ele>
        <time>2022-11-07T09:35:43Z</time>
      </trkpt>
      <trkpt lat="43.69131" lon="5.89904">
        <ele>499.20001220703</ele>
        <time>2022-11-07T09:36:15Z</time>
      </trkpt>
      <trkpt lat="43.69136" lon="5.89916">
        <ele>500.20001220703</ele>
        <time>2022-11-07T09:36:41Z</time>
      </trkpt>
      <trkpt lat="43.69137" lon="5.89919">
        <ele>500.20001220703</ele>
        <time>2022-11-07T09:37:15Z</time>
      </trkpt>
      <trkpt lat="43.6915" lon="5.89913">
        <ele>499.39999389648</ele>
        <time>2022-11-07T09:37:33Z</time>
      </trkpt>
      <trkpt lat="43.69154" lon="5.89906">
        <ele>499.20001220703</ele>
        <time>2022-11-07T09:37:47Z</time>
      </trkpt>
      <trkpt lat="43.69156" lon="5.89904">
        <ele>499.20001220703</ele>
        <time>2022-11-07T09:37:49Z</time>
      </trkpt>
      <trkpt lat="43.69183" lon="5.89875">
        <ele>497</ele>
        <time>2022-11-07T09:38:17Z</time>
      </trkpt>
      <trkpt lat="43.69205" lon="5.89841">
        <ele>496.20001220703</ele>
        <time>2022-11-07T09:38:41Z</time>
      </trkpt>
      <trkpt lat="43.69216" lon="5.89814">
        <ele>495.60000610352</ele>
        <time>2022-11-07T09:38:57Z</time>
      </trkpt>
      <trkpt lat="43.6922" lon="5.89802">
        <ele>495.20001220703</ele>
        <time>2022-11-07T09:39:04Z</time>
      </trkpt>
      <trkpt lat="43.69231" lon="5.89785">
        <ele>494.20001220703</ele>
        <time>2022-11-07T09:39:19Z</time>
      </trkpt>
      <trkpt lat="43.69243" lon="5.89754">
        <ele>493</ele>
        <time>2022-11-07T09:39:40Z</time>
      </trkpt>
      <trkpt lat="43.6925" lon="5.89733">
        <ele>492.20001220703</ele>
        <time>2022-11-07T09:39:54Z</time>
      </trkpt>
      <trkpt lat="43.69257" lon="5.89705">
        <ele>491.39999389648</ele>
        <time>2022-11-07T09:40:10Z</time>
      </trkpt>
      <trkpt lat="43.69261" lon="5.89694">
        <ele>491.39999389648</ele>
        <time>2022-11-07T09:40:15Z</time>
      </trkpt>
      <trkpt lat="43.69273" lon="5.89663">
        <ele>490.20001220703</ele>
        <time>2022-11-07T09:40:34Z</time>
      </trkpt>
      <trkpt lat="43.69275" lon="5.89654">
        <ele>489.79998779297</ele>
        <time>2022-11-07T09:40:39Z</time>
      </trkpt>
      <trkpt lat="43.69287" lon="5.89622">
        <ele>488.39999389648</ele>
        <time>2022-11-07T09:40:59Z</time>
      </trkpt>
      <trkpt lat="43.6929" lon="5.89616">
        <ele>488.39999389648</ele>
        <time>2022-11-07T09:41:03Z</time>
      </trkpt>
      <trkpt lat="43.69294" lon="5.89609">
        <ele>488.20001220703</ele>
        <time>2022-11-07T09:41:08Z</time>
      </trkpt>
      <trkpt lat="43.69296" lon="5.89606">
        <ele>488</ele>
        <time>2022-11-07T09:41:11Z</time>
      </trkpt>
      <trkpt lat="43.69299" lon="5.89602">
        <ele>487.79998779297</ele>
        <time>2022-11-07T09:41:14Z</time>
      </trkpt>
      <trkpt lat="43.69307" lon="5.89578">
        <ele>486.79998779297</ele>
        <time>2022-11-07T09:41:29Z</time>
      </trkpt>
      <trkpt lat="43.69323" lon="5.89548">
        <ele>485</ele>
        <time>2022-11-07T09:41:51Z</time>
      </trkpt>
      <trkpt lat="43.69336" lon="5.89524">
        <ele>484.20001220703</ele>
        <time>2022-11-07T09:42:12Z</time>
      </trkpt>
      <trkpt lat="43.69349" lon="5.89501">
        <ele>483.20001220703</ele>
        <time>2022-11-07T09:42:30Z</time>
      </trkpt>
      <trkpt lat="43.69351" lon="5.89498">
        <ele>483</ele>
        <time>2022-11-07T09:42:33Z</time>
      </trkpt>
      <trkpt lat="43.69357" lon="5.89486">
        <ele>482.79998779297</ele>
        <time>2022-11-07T09:42:43Z</time>
      </trkpt>
      <trkpt lat="43.69366" lon="5.89469">
        <ele>482.20001220703</ele>
        <time>2022-11-07T09:42:55Z</time>
      </trkpt>
      <trkpt lat="43.6937" lon="5.8946">
        <ele>481.79998779297</ele>
        <time>2022-11-07T09:43:01Z</time>
      </trkpt>
      <trkpt lat="43.69377" lon="5.89449">
        <ele>481.39999389648</ele>
        <time>2022-11-07T09:43:11Z</time>
      </trkpt>
      <trkpt lat="43.69383" lon="5.89442">
        <ele>480.79998779297</ele>
        <time>2022-11-07T09:43:20Z</time>
      </trkpt>
      <trkpt lat="43.69393" lon="5.89421">
        <ele>480.20001220703</ele>
        <time>2022-11-07T09:43:38Z</time>
      </trkpt>
      <trkpt lat="43.69411" lon="5.894">
        <ele>479.20001220703</ele>
        <time>2022-11-07T09:43:58Z</time>
      </trkpt>
      <trkpt lat="43.69423" lon="5.89382">
        <ele>478.60000610352</ele>
        <time>2022-11-07T09:44:15Z</time>
      </trkpt>
      <trkpt lat="43.69438" lon="5.89361">
        <ele>478</ele>
        <time>2022-11-07T09:44:33Z</time>
      </trkpt>
      <trkpt lat="43.69453" lon="5.89341">
        <ele>477.39999389648</ele>
        <time>2022-11-07T09:44:54Z</time>
      </trkpt>
      <trkpt lat="43.69483" lon="5.89303">
        <ele>476.20001220703</ele>
        <time>2022-11-07T09:45:27Z</time>
      </trkpt>
      <trkpt lat="43.69499" lon="5.89271">
        <ele>475.79998779297</ele>
        <time>2022-11-07T09:45:48Z</time>
      </trkpt>
      <trkpt lat="43.69504" lon="5.89263">
        <ele>475.60000610352</ele>
        <time>2022-11-07T09:45:55Z</time>
      </trkpt>
      <trkpt lat="43.69516" lon="5.89244">
        <ele>475.39999389648</ele>
        <time>2022-11-07T09:46:12Z</time>
      </trkpt>
      <trkpt lat="43.69528" lon="5.8922">
        <ele>475</ele>
        <time>2022-11-07T09:46:34Z</time>
      </trkpt>
      <trkpt lat="43.69547" lon="5.89199">
        <ele>474.20001220703</ele>
        <time>2022-11-07T09:46:56Z</time>
      </trkpt>
      <trkpt lat="43.69572" lon="5.8918">
        <ele>473.79998779297</ele>
        <time>2022-11-07T09:47:17Z</time>
      </trkpt>
      <trkpt lat="43.69587" lon="5.89165">
        <ele>473.20001220703</ele>
        <time>2022-11-07T09:47:33Z</time>
      </trkpt>
      <trkpt lat="43.69588" lon="5.89164">
        <ele>473.20001220703</ele>
        <time>2022-11-07T09:47:34Z</time>
      </trkpt>
      <trkpt lat="43.69601" lon="5.89155">
        <ele>473</ele>
        <time>2022-11-07T09:47:50Z</time>
      </trkpt>
      <trkpt lat="43.69603" lon="5.89148">
        <ele>473</ele>
        <time>2022-11-07T09:48:10Z</time>
      </trkpt>
      <trkpt lat="43.69605" lon="5.89136">
        <ele>472.60000610352</ele>
        <time>2022-11-07T09:48:28Z</time>
      </trkpt>
      <trkpt lat="43.69612" lon="5.8912">
        <ele>471.60000610352</ele>
        <time>2022-11-07T09:48:48Z</time>
      </trkpt>
      <trkpt lat="43.69611" lon="5.89107">
        <ele>471.20001220703</ele>
        <time>2022-11-07T09:48:56Z</time>
      </trkpt>
      <trkpt lat="43.69622" lon="5.89111">
        <ele>471.20001220703</ele>
        <time>2022-11-07T09:49:12Z</time>
      </trkpt>
      <trkpt lat="43.69622" lon="5.89108">
        <ele>470.60000610352</ele>
        <time>2022-11-07T09:49:42Z</time>
      </trkpt>
      <trkpt lat="43.69611" lon="5.89114">
        <ele>471.39999389648</ele>
        <time>2022-11-07T09:50:03Z</time>
      </trkpt>
      <trkpt lat="43.69613" lon="5.891">
        <ele>471.39999389648</ele>
        <time>2022-11-07T09:50:12Z</time>
      </trkpt>
      <trkpt lat="43.69618" lon="5.89079">
        <ele>470.39999389648</ele>
        <time>2022-11-07T09:50:27Z</time>
      </trkpt>
      <trkpt lat="43.69619" lon="5.89075">
        <ele>470.39999389648</ele>
        <time>2022-11-07T09:50:30Z</time>
      </trkpt>
      <trkpt lat="43.69626" lon="5.89041">
        <ele>470.20001220703</ele>
        <time>2022-11-07T09:50:47Z</time>
      </trkpt>
      <trkpt lat="43.69631" lon="5.89018">
        <ele>469.79998779297</ele>
        <time>2022-11-07T09:51:03Z</time>
      </trkpt>
      <trkpt lat="43.69643" lon="5.88987">
        <ele>469.60000610352</ele>
        <time>2022-11-07T09:51:26Z</time>
      </trkpt>
      <trkpt lat="43.6965" lon="5.88969">
        <ele>469.60000610352</ele>
        <time>2022-11-07T09:51:41Z</time>
      </trkpt>
      <trkpt lat="43.69652" lon="5.88966">
        <ele>469.39999389648</ele>
        <time>2022-11-07T09:51:45Z</time>
      </trkpt>
      <trkpt lat="43.69659" lon="5.88936">
        <ele>469.39999389648</ele>
        <time>2022-11-07T09:52:00Z</time>
      </trkpt>
      <trkpt lat="43.69665" lon="5.8892">
        <ele>469.20001220703</ele>
        <time>2022-11-07T09:52:09Z</time>
      </trkpt>
      <trkpt lat="43.69667" lon="5.88912">
        <ele>469.20001220703</ele>
        <time>2022-11-07T09:52:13Z</time>
      </trkpt>
      <trkpt lat="43.69669" lon="5.889">
        <ele>469.20001220703</ele>
        <time>2022-11-07T09:52:20Z</time>
      </trkpt>
      <trkpt lat="43.6967" lon="5.88875">
        <ele>469.60000610352</ele>
        <time>2022-11-07T09:52:39Z</time>
      </trkpt>
      <trkpt lat="43.69673" lon="5.88865">
        <ele>469.60000610352</ele>
        <time>2022-11-07T09:52:45Z</time>
      </trkpt>
      <trkpt lat="43.69672" lon="5.88861">
        <ele>469.60000610352</ele>
        <time>2022-11-07T09:52:51Z</time>
      </trkpt>
      <trkpt lat="43.69675" lon="5.88847">
        <ele>470</ele>
        <time>2022-11-07T09:52:58Z</time>
      </trkpt>
      <trkpt lat="43.69685" lon="5.88811">
        <ele>470.39999389648</ele>
        <time>2022-11-07T09:53:19Z</time>
      </trkpt>
      <trkpt lat="43.69691" lon="5.88779">
        <ele>469.20001220703</ele>
        <time>2022-11-07T09:53:39Z</time>
      </trkpt>
      <trkpt lat="43.69691" lon="5.88749">
        <ele>469</ele>
        <time>2022-11-07T09:53:56Z</time>
      </trkpt>
      <trkpt lat="43.69687" lon="5.88739">
        <ele>469.20001220703</ele>
        <time>2022-11-07T09:54:03Z</time>
      </trkpt>
      <trkpt lat="43.69679" lon="5.88708">
        <ele>470.79998779297</ele>
        <time>2022-11-07T09:54:24Z</time>
      </trkpt>
      <trkpt lat="43.69678" lon="5.88701">
        <ele>470.79998779297</ele>
        <time>2022-11-07T09:54:28Z</time>
      </trkpt>
      <trkpt lat="43.69687" lon="5.88678">
        <ele>470</ele>
        <time>2022-11-07T09:54:45Z</time>
      </trkpt>
      <trkpt lat="43.69693" lon="5.88657">
        <ele>469.39999389648</ele>
        <time>2022-11-07T09:55:00Z</time>
      </trkpt>
      <trkpt lat="43.697" lon="5.88628">
        <ele>469.20001220703</ele>
        <time>2022-11-07T09:55:18Z</time>
      </trkpt>
      <trkpt lat="43.69708" lon="5.88602">
        <ele>468.79998779297</ele>
        <time>2022-11-07T09:55:36Z</time>
      </trkpt>
      <trkpt lat="43.69714" lon="5.88572">
        <ele>468.60000610352</ele>
        <time>2022-11-07T09:55:55Z</time>
      </trkpt>
      <trkpt lat="43.69717" lon="5.88544">
        <ele>468.60000610352</ele>
        <time>2022-11-07T09:56:13Z</time>
      </trkpt>
      <trkpt lat="43.69718" lon="5.88519">
        <ele>468.60000610352</ele>
        <time>2022-11-07T09:56:30Z</time>
      </trkpt>
      <trkpt lat="43.69719" lon="5.88517">
        <ele>468.60000610352</ele>
        <time>2022-11-07T09:56:31Z</time>
      </trkpt>
      <trkpt lat="43.69722" lon="5.88498">
        <ele>468.79998779297</ele>
        <time>2022-11-07T09:56:44Z</time>
      </trkpt>
      <trkpt lat="43.69723" lon="5.88478">
        <ele>468.79998779297</ele>
        <time>2022-11-07T09:56:57Z</time>
      </trkpt>
      <trkpt lat="43.69727" lon="5.88456">
        <ele>469</ele>
        <time>2022-11-07T09:57:15Z</time>
      </trkpt>
      <trkpt lat="43.6973" lon="5.88438">
        <ele>469</ele>
        <time>2022-11-07T09:57:25Z</time>
      </trkpt>
      <trkpt lat="43.69727" lon="5.88428">
        <ele>469.20001220703</ele>
        <time>2022-11-07T09:57:30Z</time>
      </trkpt>
      <trkpt lat="43.69718" lon="5.88411">
        <ele>469.20001220703</ele>
        <time>2022-11-07T09:57:45Z</time>
      </trkpt>
      <trkpt lat="43.69711" lon="5.8839">
        <ele>468.79998779297</ele>
        <time>2022-11-07T09:58:01Z</time>
      </trkpt>
      <trkpt lat="43.69703" lon="5.88377">
        <ele>468.60000610352</ele>
        <time>2022-11-07T09:58:13Z</time>
      </trkpt>
      <trkpt lat="43.69702" lon="5.88361">
        <ele>468.39999389648</ele>
        <time>2022-11-07T09:58:22Z</time>
      </trkpt>
      <trkpt lat="43.69701" lon="5.88351">
        <ele>468.39999389648</ele>
        <time>2022-11-07T09:58:27Z</time>
      </trkpt>
      <trkpt lat="43.69701" lon="5.88323">
        <ele>468.20001220703</ele>
        <time>2022-11-07T09:58:43Z</time>
      </trkpt>
      <trkpt lat="43.69705" lon="5.88296">
        <ele>467.79998779297</ele>
        <time>2022-11-07T09:59:00Z</time>
      </trkpt>
      <trkpt lat="43.69708" lon="5.88272">
        <ele>466.79998779297</ele>
        <time>2022-11-07T09:59:16Z</time>
      </trkpt>
      <trkpt lat="43.69713" lon="5.88244">
        <ele>465.60000610352</ele>
        <time>2022-11-07T09:59:36Z</time>
      </trkpt>
      <trkpt lat="43.6972" lon="5.88217">
        <ele>464.60000610352</ele>
        <time>2022-11-07T09:59:55Z</time>
      </trkpt>
      <trkpt lat="43.6972" lon="5.88215">
        <ele>464.39999389648</ele>
        <time>2022-11-07T09:59:56Z</time>
      </trkpt>
      <trkpt lat="43.6972" lon="5.88213">
        <ele>464.39999389648</ele>
        <time>2022-11-07T09:59:57Z</time>
      </trkpt>
      <trkpt lat="43.69721" lon="5.88212">
        <ele>464.39999389648</ele>
        <time>2022-11-07T09:59:58Z</time>
      </trkpt>
      <trkpt lat="43.69721" lon="5.8821">
        <ele>464.39999389648</ele>
        <time>2022-11-07T09:59:59Z</time>
      </trkpt>
      <trkpt lat="43.69721" lon="5.88209">
        <ele>464.20001220703</ele>
        <time>2022-11-07T10:00:00Z</time>
      </trkpt>
      <trkpt lat="43.69722" lon="5.88207">
        <ele>464.20001220703</ele>
        <time>2022-11-07T10:00:01Z</time>
      </trkpt>
      <trkpt lat="43.69722" lon="5.88205">
        <ele>464.20001220703</ele>
        <time>2022-11-07T10:00:02Z</time>
      </trkpt>
      <trkpt lat="43.69722" lon="5.88204">
        <ele>464.20001220703</ele>
        <time>2022-11-07T10:00:03Z</time>
      </trkpt>
      <trkpt lat="43.69723" lon="5.88203">
        <ele>464.20001220703</ele>
        <time>2022-11-07T10:00:04Z</time>
      </trkpt>
      <trkpt lat="43.69723" lon="5.88201">
        <ele>464</ele>
        <time>2022-11-07T10:00:05Z</time>
      </trkpt>
      <trkpt lat="43.69723" lon="5.882">
        <ele>464</ele>
        <time>2022-11-07T10:00:06Z</time>
      </trkpt>
      <trkpt lat="43.69729" lon="5.88185">
        <ele>463.39999389648</ele>
        <time>2022-11-07T10:00:18Z</time>
      </trkpt>
      <trkpt lat="43.69729" lon="5.88184">
        <ele>463.39999389648</ele>
        <time>2022-11-07T10:00:19Z</time>
      </trkpt>
      <trkpt lat="43.6973" lon="5.88182">
        <ele>463.39999389648</ele>
        <time>2022-11-07T10:00:20Z</time>
      </trkpt>
      <trkpt lat="43.6973" lon="5.88181">
        <ele>463.39999389648</ele>
        <time>2022-11-07T10:00:21Z</time>
      </trkpt>
      <trkpt lat="43.6973" lon="5.88179">
        <ele>463.20001220703</ele>
        <time>2022-11-07T10:00:22Z</time>
      </trkpt>
      <trkpt lat="43.69731" lon="5.88178">
        <ele>463.20001220703</ele>
        <time>2022-11-07T10:00:23Z</time>
      </trkpt>
      <trkpt lat="43.69731" lon="5.88176">
        <ele>463.20001220703</ele>
        <time>2022-11-07T10:00:24Z</time>
      </trkpt>
      <trkpt lat="43.69731" lon="5.88175">
        <ele>463.20001220703</ele>
        <time>2022-11-07T10:00:25Z</time>
      </trkpt>
      <trkpt lat="43.69731" lon="5.88173">
        <ele>463.20001220703</ele>
        <time>2022-11-07T10:00:26Z</time>
      </trkpt>
      <trkpt lat="43.69731" lon="5.88172">
        <ele>463.20001220703</ele>
        <time>2022-11-07T10:00:27Z</time>
      </trkpt>
      <trkpt lat="43.69739" lon="5.88144">
        <ele>462.79998779297</ele>
        <time>2022-11-07T10:00:46Z</time>
      </trkpt>
      <trkpt lat="43.69743" lon="5.88131">
        <ele>462.39999389648</ele>
        <time>2022-11-07T10:00:56Z</time>
      </trkpt>
      <trkpt lat="43.69744" lon="5.88129">
        <ele>462.39999389648</ele>
        <time>2022-11-07T10:00:57Z</time>
      </trkpt>
      <trkpt lat="43.69753" lon="5.88106">
        <ele>462</ele>
        <time>2022-11-07T10:01:14Z</time>
      </trkpt>
      <trkpt lat="43.69761" lon="5.8808">
        <ele>461.79998779297</ele>
        <time>2022-11-07T10:01:31Z</time>
      </trkpt>
      <trkpt lat="43.69762" lon="5.88077">
        <ele>461.79998779297</ele>
        <time>2022-11-07T10:01:33Z</time>
      </trkpt>
      <trkpt lat="43.69766" lon="5.88067">
        <ele>461.60000610352</ele>
        <time>2022-11-07T10:01:40Z</time>
      </trkpt>
      <trkpt lat="43.69767" lon="5.88065">
        <ele>461.60000610352</ele>
        <time>2022-11-07T10:01:41Z</time>
      </trkpt>
      <trkpt lat="43.69767" lon="5.88064">
        <ele>461.60000610352</ele>
        <time>2022-11-07T10:01:42Z</time>
      </trkpt>
      <trkpt lat="43.69768" lon="5.88062">
        <ele>461.60000610352</ele>
        <time>2022-11-07T10:01:43Z</time>
      </trkpt>
      <trkpt lat="43.69768" lon="5.88061">
        <ele>461.60000610352</ele>
        <time>2022-11-07T10:01:44Z</time>
      </trkpt>
      <trkpt lat="43.69768" lon="5.88059">
        <ele>461.60000610352</ele>
        <time>2022-11-07T10:01:45Z</time>
      </trkpt>
      <trkpt lat="43.69769" lon="5.88058">
        <ele>461.60000610352</ele>
        <time>2022-11-07T10:01:46Z</time>
      </trkpt>
      <trkpt lat="43.6977" lon="5.88056">
        <ele>461.60000610352</ele>
        <time>2022-11-07T10:01:47Z</time>
      </trkpt>
      <trkpt lat="43.6977" lon="5.88055">
        <ele>461.60000610352</ele>
        <time>2022-11-07T10:01:48Z</time>
      </trkpt>
      <trkpt lat="43.69771" lon="5.88053">
        <ele>461.60000610352</ele>
        <time>2022-11-07T10:01:49Z</time>
      </trkpt>
      <trkpt lat="43.69771" lon="5.88051">
        <ele>461.60000610352</ele>
        <time>2022-11-07T10:01:50Z</time>
      </trkpt>
      <trkpt lat="43.69771" lon="5.8805">
        <ele>461.39999389648</ele>
        <time>2022-11-07T10:01:51Z</time>
      </trkpt>
      <trkpt lat="43.69771" lon="5.88048">
        <ele>461.39999389648</ele>
        <time>2022-11-07T10:01:52Z</time>
      </trkpt>
      <trkpt lat="43.69772" lon="5.88047">
        <ele>461.39999389648</ele>
        <time>2022-11-07T10:01:53Z</time>
      </trkpt>
      <trkpt lat="43.69778" lon="5.88022">
        <ele>461.39999389648</ele>
        <time>2022-11-07T10:02:11Z</time>
      </trkpt>
      <trkpt lat="43.69786" lon="5.88008">
        <ele>461.20001220703</ele>
        <time>2022-11-07T10:02:30Z</time>
      </trkpt>
      <trkpt lat="43.69789" lon="5.87991">
        <ele>461.20001220703</ele>
        <time>2022-11-07T10:02:45Z</time>
      </trkpt>
      <trkpt lat="43.69795" lon="5.87967">
        <ele>460.79998779297</ele>
        <time>2022-11-07T10:03:05Z</time>
      </trkpt>
      <trkpt lat="43.69805" lon="5.87939">
        <ele>460.79998779297</ele>
        <time>2022-11-07T10:03:29Z</time>
      </trkpt>
      <trkpt lat="43.69811" lon="5.87921">
        <ele>461</ele>
        <time>2022-11-07T10:03:42Z</time>
      </trkpt>
      <trkpt lat="43.69812" lon="5.87919">
        <ele>461</ele>
        <time>2022-11-07T10:03:44Z</time>
      </trkpt>
      <trkpt lat="43.69813" lon="5.87917">
        <ele>461</ele>
        <time>2022-11-07T10:03:45Z</time>
      </trkpt>
      <trkpt lat="43.69817" lon="5.87907">
        <ele>461</ele>
        <time>2022-11-07T10:03:52Z</time>
      </trkpt>
      <trkpt lat="43.69817" lon="5.87906">
        <ele>461.20001220703</ele>
        <time>2022-11-07T10:03:53Z</time>
      </trkpt>
      <trkpt lat="43.69818" lon="5.87905">
        <ele>461.20001220703</ele>
        <time>2022-11-07T10:03:54Z</time>
      </trkpt>
      <trkpt lat="43.69819" lon="5.87904">
        <ele>461.20001220703</ele>
        <time>2022-11-07T10:03:55Z</time>
      </trkpt>
      <trkpt lat="43.69819" lon="5.87903">
        <ele>461.20001220703</ele>
        <time>2022-11-07T10:03:56Z</time>
      </trkpt>
      <trkpt lat="43.69825" lon="5.87891">
        <ele>461.20001220703</ele>
        <time>2022-11-07T10:04:05Z</time>
      </trkpt>
      <trkpt lat="43.69826" lon="5.8789">
        <ele>461.20001220703</ele>
        <time>2022-11-07T10:04:06Z</time>
      </trkpt>
      <trkpt lat="43.69827" lon="5.87889">
        <ele>461.20001220703</ele>
        <time>2022-11-07T10:04:07Z</time>
      </trkpt>
      <trkpt lat="43.69827" lon="5.87885">
        <ele>461.20001220703</ele>
        <time>2022-11-07T10:04:10Z</time>
      </trkpt>
      <trkpt lat="43.69836" lon="5.87858">
        <ele>461.39999389648</ele>
        <time>2022-11-07T10:04:28Z</time>
      </trkpt>
      <trkpt lat="43.69845" lon="5.87833">
        <ele>461.20001220703</ele>
        <time>2022-11-07T10:04:45Z</time>
      </trkpt>
      <trkpt lat="43.69856" lon="5.87809">
        <ele>460.79998779297</ele>
        <time>2022-11-07T10:05:03Z</time>
      </trkpt>
      <trkpt lat="43.69864" lon="5.87785">
        <ele>460.20001220703</ele>
        <time>2022-11-07T10:05:20Z</time>
      </trkpt>
      <trkpt lat="43.69871" lon="5.87764">
        <ele>459.60000610352</ele>
        <time>2022-11-07T10:05:38Z</time>
      </trkpt>
      <trkpt lat="43.69875" lon="5.8775">
        <ele>459</ele>
        <time>2022-11-07T10:05:50Z</time>
      </trkpt>
      <trkpt lat="43.69876" lon="5.87747">
        <ele>459</ele>
        <time>2022-11-07T10:05:51Z</time>
      </trkpt>
      <trkpt lat="43.69886" lon="5.87716">
        <ele>457.60000610352</ele>
        <time>2022-11-07T10:06:14Z</time>
      </trkpt>
      <trkpt lat="43.69889" lon="5.87708">
        <ele>457.20001220703</ele>
        <time>2022-11-07T10:06:23Z</time>
      </trkpt>
      <trkpt lat="43.69892" lon="5.87686">
        <ele>456.60000610352</ele>
        <time>2022-11-07T10:06:36Z</time>
      </trkpt>
      <trkpt lat="43.69892" lon="5.8768">
        <ele>456.39999389648</ele>
        <time>2022-11-07T10:06:38Z</time>
      </trkpt>
      <trkpt lat="43.69892" lon="5.87678">
        <ele>456.39999389648</ele>
        <time>2022-11-07T10:06:39Z</time>
      </trkpt>
      <trkpt lat="43.69893" lon="5.87675">
        <ele>456.39999389648</ele>
        <time>2022-11-07T10:06:40Z</time>
      </trkpt>
      <trkpt lat="43.69898" lon="5.87644">
        <ele>455.60000610352</ele>
        <time>2022-11-07T10:07:00Z</time>
      </trkpt>
      <trkpt lat="43.69905" lon="5.87618">
        <ele>454.79998779297</ele>
        <time>2022-11-07T10:07:16Z</time>
      </trkpt>
      <trkpt lat="43.6991" lon="5.87588">
        <ele>454</ele>
        <time>2022-11-07T10:07:35Z</time>
      </trkpt>
      <trkpt lat="43.69919" lon="5.87572">
        <ele>453.60000610352</ele>
        <time>2022-11-07T10:07:48Z</time>
      </trkpt>
      <trkpt lat="43.69924" lon="5.87549">
        <ele>453.20001220703</ele>
        <time>2022-11-07T10:08:03Z</time>
      </trkpt>
      <trkpt lat="43.69929" lon="5.87517">
        <ele>452.20001220703</ele>
        <time>2022-11-07T10:08:24Z</time>
      </trkpt>
      <trkpt lat="43.69941" lon="5.8747">
        <ele>451.20001220703</ele>
        <time>2022-11-07T10:08:57Z</time>
      </trkpt>
      <trkpt lat="43.69954" lon="5.87425">
        <ele>450</ele>
        <time>2022-11-07T10:09:28Z</time>
      </trkpt>
      <trkpt lat="43.69966" lon="5.8739">
        <ele>449.79998779297</ele>
        <time>2022-11-07T10:09:53Z</time>
      </trkpt>
      <trkpt lat="43.69984" lon="5.87349">
        <ele>449.60000610352</ele>
        <time>2022-11-07T10:10:25Z</time>
      </trkpt>
      <trkpt lat="43.69999" lon="5.87313">
        <ele>449.20001220703</ele>
        <time>2022-11-07T10:10:51Z</time>
      </trkpt>
      <trkpt lat="43.70012" lon="5.87287">
        <ele>449</ele>
        <time>2022-11-07T10:11:13Z</time>
      </trkpt>
      <trkpt lat="43.70022" lon="5.87247">
        <ele>449</ele>
        <time>2022-11-07T10:11:39Z</time>
      </trkpt>
      <trkpt lat="43.70029" lon="5.87223">
        <ele>449.60000610352</ele>
        <time>2022-11-07T10:11:59Z</time>
      </trkpt>
      <trkpt lat="43.70037" lon="5.87205">
        <ele>450</ele>
        <time>2022-11-07T10:12:15Z</time>
      </trkpt>
      <trkpt lat="43.7005" lon="5.87168">
        <ele>451.20001220703</ele>
        <time>2022-11-07T10:12:42Z</time>
      </trkpt>
      <trkpt lat="43.70067" lon="5.87131">
        <ele>452</ele>
        <time>2022-11-07T10:13:12Z</time>
      </trkpt>
      <trkpt lat="43.70077" lon="5.87091">
        <ele>453</ele>
        <time>2022-11-07T10:13:38Z</time>
      </trkpt>
      <trkpt lat="43.70094" lon="5.87079">
        <ele>454.20001220703</ele>
        <time>2022-11-07T10:14:03Z</time>
      </trkpt>
      <trkpt lat="43.70099" lon="5.87076">
        <ele>454.20001220703</ele>
        <time>2022-11-07T10:14:22Z</time>
      </trkpt>
      <trkpt lat="43.70099" lon="5.87076">
        <ele>454</ele>
        <time>2022-11-07T10:15:27Z</time>
      </trkpt>
      <trkpt lat="43.701" lon="5.87075">
        <ele>454.39999389648</ele>
        <time>2022-11-07T10:16:06Z</time>
      </trkpt>
      <trkpt lat="43.701" lon="5.87075">
        <ele>454.60000610352</ele>
        <time>2022-11-07T10:16:35Z</time>
      </trkpt>
      <trkpt lat="43.70099" lon="5.87076">
        <ele>454.20001220703</ele>
        <time>2022-11-07T10:17:16Z</time>
      </trkpt>
      <trkpt lat="43.701" lon="5.87074">
        <ele>454.20001220703</ele>
        <time>2022-11-07T10:18:14Z</time>
      </trkpt>
      <trkpt lat="43.70105" lon="5.87074">
        <ele>454</ele>
        <time>2022-11-07T10:19:00Z</time>
      </trkpt>
      <trkpt lat="43.7011" lon="5.87065">
        <ele>454.20001220703</ele>
        <time>2022-11-07T10:19:19Z</time>
      </trkpt>
      <trkpt lat="43.70118" lon="5.8705">
        <ele>454.20001220703</ele>
        <time>2022-11-07T10:19:34Z</time>
      </trkpt>
      <trkpt lat="43.70134" lon="5.87032">
        <ele>453.79998779297</ele>
        <time>2022-11-07T10:19:56Z</time>
      </trkpt>
      <trkpt lat="43.70144" lon="5.87023">
        <ele>453.60000610352</ele>
        <time>2022-11-07T10:20:08Z</time>
      </trkpt>
      <trkpt lat="43.70159" lon="5.87017">
        <ele>453.60000610352</ele>
        <time>2022-11-07T10:20:20Z</time>
      </trkpt>
      <trkpt lat="43.70166" lon="5.87007">
        <ele>452.39999389648</ele>
        <time>2022-11-07T10:20:35Z</time>
      </trkpt>
      <trkpt lat="43.70176" lon="5.86994">
        <ele>449.39999389648</ele>
        <time>2022-11-07T10:20:56Z</time>
      </trkpt>
      <trkpt lat="43.70188" lon="5.86984">
        <ele>446.39999389648</ele>
        <time>2022-11-07T10:21:16Z</time>
      </trkpt>
      <trkpt lat="43.70199" lon="5.86979">
        <ele>443.39999389648</ele>
        <time>2022-11-07T10:21:34Z</time>
      </trkpt>
      <trkpt lat="43.70213" lon="5.86973">
        <ele>440.39999389648</ele>
        <time>2022-11-07T10:21:50Z</time>
      </trkpt>
      <trkpt lat="43.70228" lon="5.86962">
        <ele>437.39999389648</ele>
        <time>2022-11-07T10:22:11Z</time>
      </trkpt>
      <trkpt lat="43.70243" lon="5.86951">
        <ele>434.20001220703</ele>
        <time>2022-11-07T10:22:33Z</time>
      </trkpt>
      <trkpt lat="43.70261" lon="5.86939">
        <ele>431.39999389648</ele>
        <time>2022-11-07T10:22:55Z</time>
      </trkpt>
      <trkpt lat="43.70269" lon="5.86929">
        <ele>429.60000610352</ele>
        <time>2022-11-07T10:23:07Z</time>
      </trkpt>
      <trkpt lat="43.70282" lon="5.86917">
        <ele>426.39999389648</ele>
        <time>2022-11-07T10:23:27Z</time>
      </trkpt>
      <trkpt lat="43.70295" lon="5.86906">
        <ele>423.20001220703</ele>
        <time>2022-11-07T10:23:46Z</time>
      </trkpt>
      <trkpt lat="43.70305" lon="5.86897">
        <ele>420.39999389648</ele>
        <time>2022-11-07T10:24:05Z</time>
      </trkpt>
      <trkpt lat="43.70317" lon="5.86889">
        <ele>417.39999389648</ele>
        <time>2022-11-07T10:24:24Z</time>
      </trkpt>
      <trkpt lat="43.70326" lon="5.86881">
        <ele>414.39999389648</ele>
        <time>2022-11-07T10:24:39Z</time>
      </trkpt>
      <trkpt lat="43.70335" lon="5.86871">
        <ele>411.39999389648</ele>
        <time>2022-11-07T10:24:56Z</time>
      </trkpt>
      <trkpt lat="43.70345" lon="5.86862">
        <ele>408.20001220703</ele>
        <time>2022-11-07T10:25:13Z</time>
      </trkpt>
      <trkpt lat="43.70348" lon="5.8686">
        <ele>407.39999389648</ele>
        <time>2022-11-07T10:25:17Z</time>
      </trkpt>
      <trkpt lat="43.70357" lon="5.86848">
        <ele>404.20001220703</ele>
        <time>2022-11-07T10:25:34Z</time>
      </trkpt>
      <trkpt lat="43.70374" lon="5.86834">
        <ele>401.20001220703</ele>
        <time>2022-11-07T10:25:57Z</time>
      </trkpt>
      <trkpt lat="43.70387" lon="5.86825">
        <ele>399.39999389648</ele>
        <time>2022-11-07T10:26:14Z</time>
      </trkpt>
      <trkpt lat="43.70395" lon="5.86817">
        <ele>398.60000610352</ele>
        <time>2022-11-07T10:26:23Z</time>
      </trkpt>
      <trkpt lat="43.70395" lon="5.86814">
        <ele>398.39999389648</ele>
        <time>2022-11-07T10:26:25Z</time>
      </trkpt>
      <trkpt lat="43.70406" lon="5.86803">
        <ele>396.20001220703</ele>
        <time>2022-11-07T10:26:40Z</time>
      </trkpt>
      <trkpt lat="43.70411" lon="5.86793">
        <ele>395.39999389648</ele>
        <time>2022-11-07T10:26:48Z</time>
      </trkpt>
      <trkpt lat="43.70424" lon="5.86769">
        <ele>393.60000610352</ele>
        <time>2022-11-07T10:27:06Z</time>
      </trkpt>
      <trkpt lat="43.70436" lon="5.86747">
        <ele>392.20001220703</ele>
        <time>2022-11-07T10:27:24Z</time>
      </trkpt>
      <trkpt lat="43.70437" lon="5.86745">
        <ele>392</ele>
        <time>2022-11-07T10:27:26Z</time>
      </trkpt>
      <trkpt lat="43.70444" lon="5.86737">
        <ele>391.60000610352</ele>
        <time>2022-11-07T10:27:35Z</time>
      </trkpt>
      <trkpt lat="43.70446" lon="5.86731">
        <ele>391.39999389648</ele>
        <time>2022-11-07T10:27:39Z</time>
      </trkpt>
      <trkpt lat="43.70456" lon="5.86712">
        <ele>390.60000610352</ele>
        <time>2022-11-07T10:27:55Z</time>
      </trkpt>
      <trkpt lat="43.70458" lon="5.8671">
        <ele>390.39999389648</ele>
        <time>2022-11-07T10:27:57Z</time>
      </trkpt>
      <trkpt lat="43.70466" lon="5.86688">
        <ele>389.20001220703</ele>
        <time>2022-11-07T10:28:14Z</time>
      </trkpt>
      <trkpt lat="43.70468" lon="5.86677">
        <ele>388.79998779297</ele>
        <time>2022-11-07T10:28:20Z</time>
      </trkpt>
      <trkpt lat="43.70473" lon="5.86667">
        <ele>387.79998779297</ele>
        <time>2022-11-07T10:28:33Z</time>
      </trkpt>
      <trkpt lat="43.70481" lon="5.86647">
        <ele>386</ele>
        <time>2022-11-07T10:28:49Z</time>
      </trkpt>
      <trkpt lat="43.70494" lon="5.86642">
        <ele>384.20001220703</ele>
        <time>2022-11-07T10:29:03Z</time>
      </trkpt>
      <trkpt lat="43.70503" lon="5.86634">
        <ele>382</ele>
        <time>2022-11-07T10:29:19Z</time>
      </trkpt>
      <trkpt lat="43.70489" lon="5.86621">
        <ele>380</ele>
        <time>2022-11-07T10:29:35Z</time>
      </trkpt>
      <trkpt lat="43.70485" lon="5.86608">
        <ele>379.39999389648</ele>
        <time>2022-11-07T10:29:56Z</time>
      </trkpt>
      <trkpt lat="43.70487" lon="5.86599">
        <ele>379.60000610352</ele>
        <time>2022-11-07T10:30:14Z</time>
      </trkpt>
      <trkpt lat="43.70482" lon="5.86613">
        <ele>379.79998779297</ele>
        <time>2022-11-07T10:30:29Z</time>
      </trkpt>
      <trkpt lat="43.70488" lon="5.86611">
        <ele>378.79998779297</ele>
        <time>2022-11-07T10:30:50Z</time>
      </trkpt>
      <trkpt lat="43.7049" lon="5.86613">
        <ele>378.60000610352</ele>
        <time>2022-11-07T10:31:29Z</time>
      </trkpt>
      <trkpt lat="43.70492" lon="5.86611">
        <ele>378.60000610352</ele>
        <time>2022-11-07T10:31:31Z</time>
      </trkpt>
      <trkpt lat="43.70486" lon="5.86613">
        <ele>379</ele>
        <time>2022-11-07T10:31:51Z</time>
      </trkpt>
      <trkpt lat="43.70484" lon="5.86611">
        <ele>379.20001220703</ele>
        <time>2022-11-07T10:32:11Z</time>
      </trkpt>
      <trkpt lat="43.70482" lon="5.86604">
        <ele>379.39999389648</ele>
        <time>2022-11-07T10:32:27Z</time>
      </trkpt>
      <trkpt lat="43.7048" lon="5.8661">
        <ele>379.60000610352</ele>
        <time>2022-11-07T10:32:46Z</time>
      </trkpt>
      <trkpt lat="43.7048" lon="5.86605">
        <ele>379.60000610352</ele>
        <time>2022-11-07T10:33:11Z</time>
      </trkpt>
      <trkpt lat="43.70486" lon="5.86598">
        <ele>379.39999389648</ele>
        <time>2022-11-07T10:33:27Z</time>
      </trkpt>
      <trkpt lat="43.70489" lon="5.86599">
        <ele>379.20001220703</ele>
        <time>2022-11-07T10:33:56Z</time>
      </trkpt>
      <trkpt lat="43.70485" lon="5.86599">
        <ele>379.60000610352</ele>
        <time>2022-11-07T10:34:29Z</time>
      </trkpt>
      <trkpt lat="43.70491" lon="5.86602">
        <ele>379.39999389648</ele>
        <time>2022-11-07T10:34:41Z</time>
      </trkpt>
      <trkpt lat="43.70488" lon="5.86605">
        <ele>379</ele>
        <time>2022-11-07T10:35:13Z</time>
      </trkpt>
      <trkpt lat="43.70488" lon="5.86604">
        <ele>379</ele>
        <time>2022-11-07T10:35:16Z</time>
      </trkpt>
      <trkpt lat="43.70493" lon="5.866">
        <ele>379.20001220703</ele>
        <time>2022-11-07T10:35:33Z</time>
      </trkpt>
      <trkpt lat="43.70493" lon="5.86602">
        <ele>379.20001220703</ele>
        <time>2022-11-07T10:35:38Z</time>
      </trkpt>
      <trkpt lat="43.70492" lon="5.86604">
        <ele>379</ele>
        <time>2022-11-07T10:36:10Z</time>
      </trkpt>
      <trkpt lat="43.70492" lon="5.86603">
        <ele>379</ele>
        <time>2022-11-07T10:36:12Z</time>
      </trkpt>
      <trkpt lat="43.70492" lon="5.866">
        <ele>379.20001220703</ele>
        <time>2022-11-07T10:36:51Z</time>
      </trkpt>
      <trkpt lat="43.70488" lon="5.86602">
        <ele>379</ele>
        <time>2022-11-07T10:37:44Z</time>
      </trkpt>
      <trkpt lat="43.7048" lon="5.86609">
        <ele>379.60000610352</ele>
        <time>2022-11-07T10:38:04Z</time>
      </trkpt>
      <trkpt lat="43.70487" lon="5.86613">
        <ele>379.60000610352</ele>
        <time>2022-11-07T10:38:39Z</time>
      </trkpt>
      <trkpt lat="43.70491" lon="5.86627">
        <ele>379.39999389648</ele>
        <time>2022-11-07T10:38:53Z</time>
      </trkpt>
      <trkpt lat="43.70511" lon="5.86641">
        <ele>380.39999389648</ele>
        <time>2022-11-07T10:39:15Z</time>
      </trkpt>
      <trkpt lat="43.70536" lon="5.86643">
        <ele>379.20001220703</ele>
        <time>2022-11-07T10:39:41Z</time>
      </trkpt>
      <trkpt lat="43.70565" lon="5.86644">
        <ele>376.60000610352</ele>
        <time>2022-11-07T10:40:07Z</time>
      </trkpt>
      <trkpt lat="43.70586" lon="5.86651">
        <ele>374.39999389648</ele>
        <time>2022-11-07T10:40:30Z</time>
      </trkpt>
      <trkpt lat="43.70615" lon="5.86659">
        <ele>371.39999389648</ele>
        <time>2022-11-07T10:40:55Z</time>
      </trkpt>
      <trkpt lat="43.70641" lon="5.86667">
        <ele>368.39999389648</ele>
        <time>2022-11-07T10:41:21Z</time>
      </trkpt>
      <trkpt lat="43.70668" lon="5.86671">
        <ele>365.79998779297</ele>
        <time>2022-11-07T10:41:47Z</time>
      </trkpt>
      <trkpt lat="43.70698" lon="5.86682">
        <ele>362.79998779297</ele>
        <time>2022-11-07T10:42:14Z</time>
      </trkpt>
      <trkpt lat="43.70716" lon="5.86701">
        <ele>360.20001220703</ele>
        <time>2022-11-07T10:42:39Z</time>
      </trkpt>
      <trkpt lat="43.70737" lon="5.8672">
        <ele>358</ele>
        <time>2022-11-07T10:43:01Z</time>
      </trkpt>
      <trkpt lat="43.70743" lon="5.86731">
        <ele>356.39999389648</ele>
        <time>2022-11-07T10:43:15Z</time>
      </trkpt>
      <trkpt lat="43.70767" lon="5.86754">
        <ele>354.60000610352</ele>
        <time>2022-11-07T10:43:40Z</time>
      </trkpt>
      <trkpt lat="43.70783" lon="5.86758">
        <ele>354.20001220703</ele>
        <time>2022-11-07T10:43:49Z</time>
      </trkpt>
      <trkpt lat="43.70788" lon="5.86757">
        <ele>354</ele>
        <time>2022-11-07T10:43:54Z</time>
      </trkpt>
      <trkpt lat="43.70803" lon="5.86745">
        <ele>353.20001220703</ele>
        <time>2022-11-07T10:44:11Z</time>
      </trkpt>
      <trkpt lat="43.70819" lon="5.86733">
        <ele>351.79998779297</ele>
        <time>2022-11-07T10:44:28Z</time>
      </trkpt>
      <trkpt lat="43.70833" lon="5.86724">
        <ele>351.20001220703</ele>
        <time>2022-11-07T10:44:43Z</time>
      </trkpt>
      <trkpt lat="43.70843" lon="5.86724">
        <ele>350.79998779297</ele>
        <time>2022-11-07T10:44:51Z</time>
      </trkpt>
      <trkpt lat="43.70859" lon="5.86715">
        <ele>350.39999389648</ele>
        <time>2022-11-07T10:45:07Z</time>
      </trkpt>
      <trkpt lat="43.70866" lon="5.8671">
        <ele>349.60000610352</ele>
        <time>2022-11-07T10:45:23Z</time>
      </trkpt>
      <trkpt lat="43.70868" lon="5.86721">
        <ele>348.79998779297</ele>
        <time>2022-11-07T10:45:42Z</time>
      </trkpt>
      <trkpt lat="43.70867" lon="5.86725">
        <ele>348.20001220703</ele>
        <time>2022-11-07T10:45:58Z</time>
      </trkpt>
      <trkpt lat="43.70866" lon="5.86729">
        <ele>348</ele>
        <time>2022-11-07T10:46:01Z</time>
      </trkpt>
      <trkpt lat="43.70865" lon="5.86735">
        <ele>347.79998779297</ele>
        <time>2022-11-07T10:46:06Z</time>
      </trkpt>
      <trkpt lat="43.70864" lon="5.86737">
        <ele>347.79998779297</ele>
        <time>2022-11-07T10:46:08Z</time>
      </trkpt>
      <trkpt lat="43.70862" lon="5.86738">
        <ele>347.79998779297</ele>
        <time>2022-11-07T10:46:11Z</time>
      </trkpt>
      <trkpt lat="43.7086" lon="5.86745">
        <ele>347.79998779297</ele>
        <time>2022-11-07T10:46:15Z</time>
      </trkpt>
      <trkpt lat="43.70859" lon="5.86752">
        <ele>347.79998779297</ele>
        <time>2022-11-07T10:46:19Z</time>
      </trkpt>
      <trkpt lat="43.70861" lon="5.86771">
        <ele>347.79998779297</ele>
        <time>2022-11-07T10:46:31Z</time>
      </trkpt>
      <trkpt lat="43.7086" lon="5.86796">
        <ele>347.79998779297</ele>
        <time>2022-11-07T10:46:46Z</time>
      </trkpt>
      <trkpt lat="43.70859" lon="5.86817">
        <ele>347.79998779297</ele>
        <time>2022-11-07T10:47:00Z</time>
      </trkpt>
      <trkpt lat="43.70858" lon="5.86834">
        <ele>347.79998779297</ele>
        <time>2022-11-07T10:47:11Z</time>
      </trkpt>
      <trkpt lat="43.70859" lon="5.86839">
        <ele>347.79998779297</ele>
        <time>2022-11-07T10:47:14Z</time>
      </trkpt>
      <trkpt lat="43.70858" lon="5.8686">
        <ele>347.79998779297</ele>
        <time>2022-11-07T10:47:27Z</time>
      </trkpt>
      <trkpt lat="43.7086" lon="5.86878">
        <ele>347.60000610352</ele>
        <time>2022-11-07T10:47:40Z</time>
      </trkpt>
      <trkpt lat="43.7086" lon="5.86901">
        <ele>347.60000610352</ele>
        <time>2022-11-07T10:47:55Z</time>
      </trkpt>
      <trkpt lat="43.7086" lon="5.8691">
        <ele>347.60000610352</ele>
        <time>2022-11-07T10:48:01Z</time>
      </trkpt>
      <trkpt lat="43.70858" lon="5.86945">
        <ele>347.60000610352</ele>
        <time>2022-11-07T10:48:22Z</time>
      </trkpt>
      <trkpt lat="43.70859" lon="5.86946">
        <ele>347.60000610352</ele>
        <time>2022-11-07T10:48:23Z</time>
      </trkpt>
      <trkpt lat="43.70859" lon="5.8697">
        <ele>347.60000610352</ele>
        <time>2022-11-07T10:48:38Z</time>
      </trkpt>
      <trkpt lat="43.70859" lon="5.86973">
        <ele>347.79998779297</ele>
        <time>2022-11-07T10:48:40Z</time>
      </trkpt>
      <trkpt lat="43.7086" lon="5.86976">
        <ele>347.79998779297</ele>
        <time>2022-11-07T10:48:43Z</time>
      </trkpt>
      <trkpt lat="43.70858" lon="5.86999">
        <ele>347.79998779297</ele>
        <time>2022-11-07T10:48:58Z</time>
      </trkpt>
      <trkpt lat="43.70856" lon="5.87016">
        <ele>347.79998779297</ele>
        <time>2022-11-07T10:49:09Z</time>
      </trkpt>
      <trkpt lat="43.70855" lon="5.8704">
        <ele>347.79998779297</ele>
        <time>2022-11-07T10:49:25Z</time>
      </trkpt>
      <trkpt lat="43.70855" lon="5.87045">
        <ele>347.79998779297</ele>
        <time>2022-11-07T10:49:28Z</time>
      </trkpt>
      <trkpt lat="43.70852" lon="5.87069">
        <ele>347.79998779297</ele>
        <time>2022-11-07T10:49:43Z</time>
      </trkpt>
      <trkpt lat="43.70851" lon="5.87077">
        <ele>347.79998779297</ele>
        <time>2022-11-07T10:49:48Z</time>
      </trkpt>
      <trkpt lat="43.70852" lon="5.87081">
        <ele>347.79998779297</ele>
        <time>2022-11-07T10:49:51Z</time>
      </trkpt>
      <trkpt lat="43.70849" lon="5.87107">
        <ele>348</ele>
        <time>2022-11-07T10:50:08Z</time>
      </trkpt>
      <trkpt lat="43.70845" lon="5.87132">
        <ele>348</ele>
        <time>2022-11-07T10:50:24Z</time>
      </trkpt>
      <trkpt lat="43.70843" lon="5.87154">
        <ele>348</ele>
        <time>2022-11-07T10:50:39Z</time>
      </trkpt>
      <trkpt lat="43.70841" lon="5.8717">
        <ele>348</ele>
        <time>2022-11-07T10:50:51Z</time>
      </trkpt>
      <trkpt lat="43.70838" lon="5.87195">
        <ele>348</ele>
        <time>2022-11-07T10:51:08Z</time>
      </trkpt>
      <trkpt lat="43.70836" lon="5.87218">
        <ele>348</ele>
        <time>2022-11-07T10:51:22Z</time>
      </trkpt>
      <trkpt lat="43.70833" lon="5.87241">
        <ele>348</ele>
        <time>2022-11-07T10:51:37Z</time>
      </trkpt>
      <trkpt lat="43.7083" lon="5.87257">
        <ele>348</ele>
        <time>2022-11-07T10:51:48Z</time>
      </trkpt>
      <trkpt lat="43.70828" lon="5.87283">
        <ele>347.79998779297</ele>
        <time>2022-11-07T10:52:04Z</time>
      </trkpt>
      <trkpt lat="43.70825" lon="5.87319">
        <ele>348</ele>
        <time>2022-11-07T10:52:26Z</time>
      </trkpt>
      <trkpt lat="43.70824" lon="5.8734">
        <ele>348</ele>
        <time>2022-11-07T10:52:40Z</time>
      </trkpt>
      <trkpt lat="43.7082" lon="5.87366">
        <ele>348</ele>
        <time>2022-11-07T10:52:56Z</time>
      </trkpt>
      <trkpt lat="43.7082" lon="5.87368">
        <ele>348</ele>
        <time>2022-11-07T10:52:57Z</time>
      </trkpt>
      <trkpt lat="43.70817" lon="5.87385">
        <ele>348.20001220703</ele>
        <time>2022-11-07T10:53:08Z</time>
      </trkpt>
      <trkpt lat="43.70815" lon="5.87398">
        <ele>348.39999389648</ele>
        <time>2022-11-07T10:53:15Z</time>
      </trkpt>
      <trkpt lat="43.70813" lon="5.87429">
        <ele>348.39999389648</ele>
        <time>2022-11-07T10:53:36Z</time>
      </trkpt>
      <trkpt lat="43.70812" lon="5.87446">
        <ele>348.39999389648</ele>
        <time>2022-11-07T10:53:48Z</time>
      </trkpt>
      <trkpt lat="43.70807" lon="5.87473">
        <ele>348.39999389648</ele>
        <time>2022-11-07T10:54:05Z</time>
      </trkpt>
      <trkpt lat="43.70806" lon="5.8749">
        <ele>348.39999389648</ele>
        <time>2022-11-07T10:54:16Z</time>
      </trkpt>
      <trkpt lat="43.70807" lon="5.87492">
        <ele>348.39999389648</ele>
        <time>2022-11-07T10:54:18Z</time>
      </trkpt>
      <trkpt lat="43.70804" lon="5.87515">
        <ele>348.39999389648</ele>
        <time>2022-11-07T10:54:32Z</time>
      </trkpt>
      <trkpt lat="43.70802" lon="5.87523">
        <ele>348.60000610352</ele>
        <time>2022-11-07T10:54:50Z</time>
      </trkpt>
      <trkpt lat="43.70801" lon="5.87539">
        <ele>348.60000610352</ele>
        <time>2022-11-07T10:55:09Z</time>
      </trkpt>
      <trkpt lat="43.70799" lon="5.87564">
        <ele>348.60000610352</ele>
        <time>2022-11-07T10:55:25Z</time>
      </trkpt>
      <trkpt lat="43.70797" lon="5.87587">
        <ele>348.60000610352</ele>
        <time>2022-11-07T10:55:39Z</time>
      </trkpt>
      <trkpt lat="43.70794" lon="5.87602">
        <ele>348.39999389648</ele>
        <time>2022-11-07T10:55:51Z</time>
      </trkpt>
      <trkpt lat="43.70792" lon="5.87623">
        <ele>348.60000610352</ele>
        <time>2022-11-07T10:56:04Z</time>
      </trkpt>
      <trkpt lat="43.70791" lon="5.87645">
        <ele>348.60000610352</ele>
        <time>2022-11-07T10:56:19Z</time>
      </trkpt>
      <trkpt lat="43.70793" lon="5.87658">
        <ele>348.60000610352</ele>
        <time>2022-11-07T10:56:30Z</time>
      </trkpt>
      <trkpt lat="43.70803" lon="5.8768">
        <ele>348.39999389648</ele>
        <time>2022-11-07T10:56:49Z</time>
      </trkpt>
      <trkpt lat="43.70803" lon="5.87693">
        <ele>348.79998779297</ele>
        <time>2022-11-07T10:56:57Z</time>
      </trkpt>
      <trkpt lat="43.70801" lon="5.87717">
        <ele>349.60000610352</ele>
        <time>2022-11-07T10:57:13Z</time>
      </trkpt>
      <trkpt lat="43.70802" lon="5.87723">
        <ele>349.79998779297</ele>
        <time>2022-11-07T10:57:17Z</time>
      </trkpt>
      <trkpt lat="43.70803" lon="5.87755">
        <ele>350</ele>
        <time>2022-11-07T10:57:37Z</time>
      </trkpt>
      <trkpt lat="43.70801" lon="5.87781">
        <ele>349.39999389648</ele>
        <time>2022-11-07T10:57:53Z</time>
      </trkpt>
      <trkpt lat="43.708" lon="5.87787">
        <ele>349.39999389648</ele>
        <time>2022-11-07T10:57:57Z</time>
      </trkpt>
      <trkpt lat="43.70797" lon="5.87813">
        <ele>348.79998779297</ele>
        <time>2022-11-07T10:58:13Z</time>
      </trkpt>
      <trkpt lat="43.70795" lon="5.87841">
        <ele>347.79998779297</ele>
        <time>2022-11-07T10:58:30Z</time>
      </trkpt>
      <trkpt lat="43.70791" lon="5.87869">
        <ele>347.39999389648</ele>
        <time>2022-11-07T10:58:46Z</time>
      </trkpt>
      <trkpt lat="43.70787" lon="5.87904">
        <ele>346.79998779297</ele>
        <time>2022-11-07T10:59:06Z</time>
      </trkpt>
      <trkpt lat="43.70786" lon="5.8791">
        <ele>346.60000610352</ele>
        <time>2022-11-07T10:59:11Z</time>
      </trkpt>
      <trkpt lat="43.70783" lon="5.87936">
        <ele>345.79998779297</ele>
        <time>2022-11-07T10:59:27Z</time>
      </trkpt>
      <trkpt lat="43.70782" lon="5.87959">
        <ele>345.39999389648</ele>
        <time>2022-11-07T10:59:43Z</time>
      </trkpt>
      <trkpt lat="43.70781" lon="5.87984">
        <ele>345</ele>
        <time>2022-11-07T10:59:59Z</time>
      </trkpt>
      <trkpt lat="43.70781" lon="5.8799">
        <ele>344.79998779297</ele>
        <time>2022-11-07T11:00:02Z</time>
      </trkpt>
      <trkpt lat="43.70785" lon="5.88008">
        <ele>343.60000610352</ele>
        <time>2022-11-07T11:00:15Z</time>
      </trkpt>
      <trkpt lat="43.7079" lon="5.88035">
        <ele>341.79998779297</ele>
        <time>2022-11-07T11:00:35Z</time>
      </trkpt>
      <trkpt lat="43.70798" lon="5.88068">
        <ele>339.60000610352</ele>
        <time>2022-11-07T11:00:55Z</time>
      </trkpt>
      <trkpt lat="43.70799" lon="5.8809">
        <ele>337.60000610352</ele>
        <time>2022-11-07T11:01:09Z</time>
      </trkpt>
      <trkpt lat="43.70798" lon="5.88109">
        <ele>336.20001220703</ele>
        <time>2022-11-07T11:01:23Z</time>
      </trkpt>
      <trkpt lat="43.70791" lon="5.88128">
        <ele>335</ele>
        <time>2022-11-07T11:01:38Z</time>
      </trkpt>
      <trkpt lat="43.70787" lon="5.88131">
        <ele>334.20001220703</ele>
        <time>2022-11-07T11:02:08Z</time>
      </trkpt>
      <trkpt lat="43.70784" lon="5.88139">
        <ele>334.20001220703</ele>
        <time>2022-11-07T11:02:28Z</time>
      </trkpt>
      <trkpt lat="43.70783" lon="5.88144">
        <ele>334</ele>
        <time>2022-11-07T11:02:33Z</time>
      </trkpt>
      <trkpt lat="43.70776" lon="5.88157">
        <ele>333.20001220703</ele>
        <time>2022-11-07T11:02:48Z</time>
      </trkpt>
      <trkpt lat="43.70773" lon="5.88172">
        <ele>332</ele>
        <time>2022-11-07T11:03:06Z</time>
      </trkpt>
      <trkpt lat="43.70775" lon="5.88187">
        <ele>330.39999389648</ele>
        <time>2022-11-07T11:03:24Z</time>
      </trkpt>
      <trkpt lat="43.70781" lon="5.88208">
        <ele>328</ele>
        <time>2022-11-07T11:03:43Z</time>
      </trkpt>
      <trkpt lat="43.7079" lon="5.8824">
        <ele>325.20001220703</ele>
        <time>2022-11-07T11:04:12Z</time>
      </trkpt>
      <trkpt lat="43.70792" lon="5.88245">
        <ele>324.60000610352</ele>
        <time>2022-11-07T11:04:28Z</time>
      </trkpt>
      <trkpt lat="43.70802" lon="5.88259">
        <ele>325.20001220703</ele>
        <time>2022-11-07T11:04:47Z</time>
      </trkpt>
      <trkpt lat="43.70818" lon="5.88261">
        <ele>326</ele>
        <time>2022-11-07T11:05:09Z</time>
      </trkpt>
      <trkpt lat="43.70833" lon="5.88265">
        <ele>326.79998779297</ele>
        <time>2022-11-07T11:05:25Z</time>
      </trkpt>
      <trkpt lat="43.70843" lon="5.88271">
        <ele>327</ele>
        <time>2022-11-07T11:05:40Z</time>
      </trkpt>
      <trkpt lat="43.70868" lon="5.88284">
        <ele>327.60000610352</ele>
        <time>2022-11-07T11:06:05Z</time>
      </trkpt>
      <trkpt lat="43.70876" lon="5.88294">
        <ele>329.39999389648</ele>
        <time>2022-11-07T11:06:23Z</time>
      </trkpt>
      <trkpt lat="43.70895" lon="5.88321">
        <ele>332.39999389648</ele>
        <time>2022-11-07T11:06:52Z</time>
      </trkpt>
      <trkpt lat="43.70898" lon="5.88352">
        <ele>335.39999389648</ele>
        <time>2022-11-07T11:07:19Z</time>
      </trkpt>
      <trkpt lat="43.70913" lon="5.88374">
        <ele>337.60000610352</ele>
        <time>2022-11-07T11:07:44Z</time>
      </trkpt>
      <trkpt lat="43.70915" lon="5.88409">
        <ele>340.20001220703</ele>
        <time>2022-11-07T11:08:11Z</time>
      </trkpt>
      <trkpt lat="43.70904" lon="5.88431">
        <ele>342.79998779297</ele>
        <time>2022-11-07T11:08:38Z</time>
      </trkpt>
      <trkpt lat="43.70896" lon="5.88455">
        <ele>344</ele>
        <time>2022-11-07T11:09:00Z</time>
      </trkpt>
      <trkpt lat="43.7091" lon="5.88453">
        <ele>345.20001220703</ele>
        <time>2022-11-07T11:09:22Z</time>
      </trkpt>
      <trkpt lat="43.70911" lon="5.88451">
        <ele>345.60000610352</ele>
        <time>2022-11-07T11:09:24Z</time>
      </trkpt>
      <trkpt lat="43.70924" lon="5.88429">
        <ele>348</ele>
        <time>2022-11-07T11:09:47Z</time>
      </trkpt>
      <trkpt lat="43.70936" lon="5.88417">
        <ele>349.20001220703</ele>
        <time>2022-11-07T11:10:03Z</time>
      </trkpt>
      <trkpt lat="43.70955" lon="5.88403">
        <ele>351.20001220703</ele>
        <time>2022-11-07T11:10:27Z</time>
      </trkpt>
      <trkpt lat="43.70972" lon="5.88417">
        <ele>353</ele>
        <time>2022-11-07T11:10:51Z</time>
      </trkpt>
      <trkpt lat="43.70978" lon="5.88409">
        <ele>353.60000610352</ele>
        <time>2022-11-07T11:11:18Z</time>
      </trkpt>
      <trkpt lat="43.70972" lon="5.88429">
        <ele>353.79998779297</ele>
        <time>2022-11-07T11:11:33Z</time>
      </trkpt>
      <trkpt lat="43.70974" lon="5.88464">
        <ele>355.60000610352</ele>
        <time>2022-11-07T11:12:04Z</time>
      </trkpt>
      <trkpt lat="43.70975" lon="5.88494">
        <ele>358.20001220703</ele>
        <time>2022-11-07T11:12:29Z</time>
      </trkpt>
      <trkpt lat="43.70989" lon="5.88525">
        <ele>361.20001220703</ele>
        <time>2022-11-07T11:12:55Z</time>
      </trkpt>
      <trkpt lat="43.70987" lon="5.88565">
        <ele>363.79998779297</ele>
        <time>2022-11-07T11:13:26Z</time>
      </trkpt>
      <trkpt lat="43.70965" lon="5.8858">
        <ele>365</ele>
        <time>2022-11-07T11:13:48Z</time>
      </trkpt>
      <trkpt lat="43.7094" lon="5.88597">
        <ele>366</ele>
        <time>2022-11-07T11:14:13Z</time>
      </trkpt>
      <trkpt lat="43.70933" lon="5.88601">
        <ele>366.60000610352</ele>
        <time>2022-11-07T11:14:26Z</time>
      </trkpt>
      <trkpt lat="43.70923" lon="5.88607">
        <ele>367.60000610352</ele>
        <time>2022-11-07T11:14:47Z</time>
      </trkpt>
      <trkpt lat="43.70919" lon="5.88609">
        <ele>367.20001220703</ele>
        <time>2022-11-07T11:15:15Z</time>
      </trkpt>
      <trkpt lat="43.70917" lon="5.88614">
        <ele>368</ele>
        <time>2022-11-07T11:15:56Z</time>
      </trkpt>
      <trkpt lat="43.70915" lon="5.88616">
        <ele>368.60000610352</ele>
        <time>2022-11-07T11:16:30Z</time>
      </trkpt>
      <trkpt lat="43.7092" lon="5.88611">
        <ele>368.60000610352</ele>
        <time>2022-11-07T11:16:59Z</time>
      </trkpt>
      <trkpt lat="43.70924" lon="5.88628">
        <ele>368.39999389648</ele>
        <time>2022-11-07T11:17:14Z</time>
      </trkpt>
      <trkpt lat="43.70925" lon="5.88651">
        <ele>368.39999389648</ele>
        <time>2022-11-07T11:17:34Z</time>
      </trkpt>
      <trkpt lat="43.70927" lon="5.88661">
        <ele>367.39999389648</ele>
        <time>2022-11-07T11:17:49Z</time>
      </trkpt>
      <trkpt lat="43.70927" lon="5.88663">
        <ele>367.39999389648</ele>
        <time>2022-11-07T11:17:51Z</time>
      </trkpt>
      <trkpt lat="43.7093" lon="5.88696">
        <ele>365.39999389648</ele>
        <time>2022-11-07T11:18:14Z</time>
      </trkpt>
      <trkpt lat="43.7093" lon="5.88698">
        <ele>365.20001220703</ele>
        <time>2022-11-07T11:18:15Z</time>
      </trkpt>
      <trkpt lat="43.70932" lon="5.88727">
        <ele>364.60000610352</ele>
        <time>2022-11-07T11:18:38Z</time>
      </trkpt>
      <trkpt lat="43.70935" lon="5.88756">
        <ele>366.39999389648</ele>
        <time>2022-11-07T11:19:02Z</time>
      </trkpt>
      <trkpt lat="43.70944" lon="5.88787">
        <ele>368.39999389648</ele>
        <time>2022-11-07T11:19:28Z</time>
      </trkpt>
      <trkpt lat="43.7095" lon="5.88823">
        <ele>370</ele>
        <time>2022-11-07T11:19:56Z</time>
      </trkpt>
      <trkpt lat="43.70958" lon="5.8886">
        <ele>371.60000610352</ele>
        <time>2022-11-07T11:20:25Z</time>
      </trkpt>
      <trkpt lat="43.70969" lon="5.88893">
        <ele>373.79998779297</ele>
        <time>2022-11-07T11:20:54Z</time>
      </trkpt>
      <trkpt lat="43.70982" lon="5.88921">
        <ele>375.39999389648</ele>
        <time>2022-11-07T11:21:17Z</time>
      </trkpt>
      <trkpt lat="43.70997" lon="5.88958">
        <ele>377.39999389648</ele>
        <time>2022-11-07T11:21:48Z</time>
      </trkpt>
      <trkpt lat="43.71012" lon="5.88983">
        <ele>379.79998779297</ele>
        <time>2022-11-07T11:22:14Z</time>
      </trkpt>
      <trkpt lat="43.71026" lon="5.89013">
        <ele>382</ele>
        <time>2022-11-07T11:22:43Z</time>
      </trkpt>
      <trkpt lat="43.71035" lon="5.89037">
        <ele>384</ele>
        <time>2022-11-07T11:23:07Z</time>
      </trkpt>
      <trkpt lat="43.71041" lon="5.89069">
        <ele>385.79998779297</ele>
        <time>2022-11-07T11:23:34Z</time>
      </trkpt>
      <trkpt lat="43.71052" lon="5.89103">
        <ele>387.60000610352</ele>
        <time>2022-11-07T11:24:02Z</time>
      </trkpt>
      <trkpt lat="43.71064" lon="5.89119">
        <ele>389.60000610352</ele>
        <time>2022-11-07T11:24:25Z</time>
      </trkpt>
      <trkpt lat="43.71073" lon="5.89126">
        <ele>390.39999389648</ele>
        <time>2022-11-07T11:24:35Z</time>
      </trkpt>
      <trkpt lat="43.71089" lon="5.89141">
        <ele>391.39999389648</ele>
        <time>2022-11-07T11:24:56Z</time>
      </trkpt>
      <trkpt lat="43.71106" lon="5.8916">
        <ele>392.39999389648</ele>
        <time>2022-11-07T11:25:21Z</time>
      </trkpt>
      <trkpt lat="43.71122" lon="5.89179">
        <ele>393</ele>
        <time>2022-11-07T11:25:41Z</time>
      </trkpt>
      <trkpt lat="43.7114" lon="5.89205">
        <ele>393.79998779297</ele>
        <time>2022-11-07T11:26:05Z</time>
      </trkpt>
      <trkpt lat="43.71152" lon="5.89232">
        <ele>394.79998779297</ele>
        <time>2022-11-07T11:26:29Z</time>
      </trkpt>
      <trkpt lat="43.71163" lon="5.89262">
        <ele>396</ele>
        <time>2022-11-07T11:26:55Z</time>
      </trkpt>
      <trkpt lat="43.71179" lon="5.89295">
        <ele>397.39999389648</ele>
        <time>2022-11-07T11:27:21Z</time>
      </trkpt>
      <trkpt lat="43.71186" lon="5.89336">
        <ele>399.39999389648</ele>
        <time>2022-11-07T11:27:52Z</time>
      </trkpt>
      <trkpt lat="43.71202" lon="5.89364">
        <ele>401.79998779297</ele>
        <time>2022-11-07T11:28:20Z</time>
      </trkpt>
      <trkpt lat="43.71211" lon="5.89394">
        <ele>404.60000610352</ele>
        <time>2022-11-07T11:28:47Z</time>
      </trkpt>
      <trkpt lat="43.71218" lon="5.89437">
        <ele>407.60000610352</ele>
        <time>2022-11-07T11:29:18Z</time>
      </trkpt>
      <trkpt lat="43.71231" lon="5.89449">
        <ele>409.20001220703</ele>
        <time>2022-11-07T11:29:35Z</time>
      </trkpt>
      <trkpt lat="43.71244" lon="5.89461">
        <ele>409.79998779297</ele>
        <time>2022-11-07T11:29:53Z</time>
      </trkpt>
      <trkpt lat="43.71259" lon="5.89474">
        <ele>410.79998779297</ele>
        <time>2022-11-07T11:30:10Z</time>
      </trkpt>
      <trkpt lat="43.7126" lon="5.89476">
        <ele>411</ele>
        <time>2022-11-07T11:30:12Z</time>
      </trkpt>
      <trkpt lat="43.71274" lon="5.89482">
        <ele>412</ele>
        <time>2022-11-07T11:30:27Z</time>
      </trkpt>
      <trkpt lat="43.71289" lon="5.89483">
        <ele>413.39999389648</ele>
        <time>2022-11-07T11:30:42Z</time>
      </trkpt>
      <trkpt lat="43.71305" lon="5.89486">
        <ele>414.79998779297</ele>
        <time>2022-11-07T11:31:00Z</time>
      </trkpt>
      <trkpt lat="43.71305" lon="5.89485">
        <ele>415.60000610352</ele>
        <time>2022-11-07T11:31:17Z</time>
      </trkpt>
      <trkpt lat="43.71307" lon="5.89485">
        <ele>415.39999389648</ele>
        <time>2022-11-07T11:31:52Z</time>
      </trkpt>
      <trkpt lat="43.71306" lon="5.89488">
        <ele>415.39999389648</ele>
        <time>2022-11-07T11:32:24Z</time>
      </trkpt>
      <trkpt lat="43.71308" lon="5.89496">
        <ele>415.60000610352</ele>
        <time>2022-11-07T11:32:42Z</time>
      </trkpt>
      <trkpt lat="43.71306" lon="5.89496">
        <ele>415.39999389648</ele>
        <time>2022-11-07T11:33:01Z</time>
      </trkpt>
      <trkpt lat="43.71309" lon="5.89501">
        <ele>415.60000610352</ele>
        <time>2022-11-07T11:33:37Z</time>
      </trkpt>
      <trkpt lat="43.7131" lon="5.89505">
        <ele>415.60000610352</ele>
        <time>2022-11-07T11:33:40Z</time>
      </trkpt>
      <trkpt lat="43.71316" lon="5.8952">
        <ele>415.60000610352</ele>
        <time>2022-11-07T11:33:55Z</time>
      </trkpt>
      <trkpt lat="43.71319" lon="5.89526">
        <ele>415.60000610352</ele>
        <time>2022-11-07T11:34:01Z</time>
      </trkpt>
      <trkpt lat="43.71336" lon="5.89538">
        <ele>415</ele>
        <time>2022-11-07T11:34:19Z</time>
      </trkpt>
      <trkpt lat="43.71336" lon="5.89539">
        <ele>415</ele>
        <time>2022-11-07T11:34:20Z</time>
      </trkpt>
      <trkpt lat="43.7134" lon="5.89543">
        <ele>415</ele>
        <time>2022-11-07T11:34:24Z</time>
      </trkpt>
      <trkpt lat="43.71344" lon="5.89551">
        <ele>414.79998779297</ele>
        <time>2022-11-07T11:34:32Z</time>
      </trkpt>
      <trkpt lat="43.71346" lon="5.89565">
        <ele>414.20001220703</ele>
        <time>2022-11-07T11:34:45Z</time>
      </trkpt>
      <trkpt lat="43.7135" lon="5.89587">
        <ele>413</ele>
        <time>2022-11-07T11:35:06Z</time>
      </trkpt>
      <trkpt lat="43.71349" lon="5.89613">
        <ele>411.60000610352</ele>
        <time>2022-11-07T11:35:25Z</time>
      </trkpt>
      <trkpt lat="43.71352" lon="5.89632">
        <ele>410.79998779297</ele>
        <time>2022-11-07T11:35:43Z</time>
      </trkpt>
      <trkpt lat="43.71357" lon="5.89641">
        <ele>410.39999389648</ele>
        <time>2022-11-07T11:35:52Z</time>
      </trkpt>
      <trkpt lat="43.71371" lon="5.89651">
        <ele>409.60000610352</ele>
        <time>2022-11-07T11:36:06Z</time>
      </trkpt>
      <trkpt lat="43.71386" lon="5.89653">
        <ele>408.60000610352</ele>
        <time>2022-11-07T11:36:18Z</time>
      </trkpt>
      <trkpt lat="43.71401" lon="5.8965">
        <ele>407.60000610352</ele>
        <time>2022-11-07T11:36:31Z</time>
      </trkpt>
      <trkpt lat="43.71416" lon="5.89654">
        <ele>406.79998779297</ele>
        <time>2022-11-07T11:36:46Z</time>
      </trkpt>
      <trkpt lat="43.71421" lon="5.89656">
        <ele>406.39999389648</ele>
        <time>2022-11-07T11:36:50Z</time>
      </trkpt>
      <trkpt lat="43.71429" lon="5.89664">
        <ele>405.79998779297</ele>
        <time>2022-11-07T11:36:59Z</time>
      </trkpt>
      <trkpt lat="43.71434" lon="5.89684">
        <ele>405.20001220703</ele>
        <time>2022-11-07T11:37:14Z</time>
      </trkpt>
      <trkpt lat="43.71429" lon="5.89701">
        <ele>404.20001220703</ele>
        <time>2022-11-07T11:37:28Z</time>
      </trkpt>
      <trkpt lat="43.71421" lon="5.89713">
        <ele>403.20001220703</ele>
        <time>2022-11-07T11:37:49Z</time>
      </trkpt>
      <trkpt lat="43.71412" lon="5.89725">
        <ele>402.60000610352</ele>
        <time>2022-11-07T11:38:00Z</time>
      </trkpt>
      <trkpt lat="43.71403" lon="5.89735">
        <ele>402</ele>
        <time>2022-11-07T11:38:08Z</time>
      </trkpt>
      <trkpt lat="43.71397" lon="5.8976">
        <ele>400.79998779297</ele>
        <time>2022-11-07T11:38:28Z</time>
      </trkpt>
      <trkpt lat="43.71396" lon="5.89775">
        <ele>400.20001220703</ele>
        <time>2022-11-07T11:38:35Z</time>
      </trkpt>
      <trkpt lat="43.7141" lon="5.89805">
        <ele>398.60000610352</ele>
        <time>2022-11-07T11:38:57Z</time>
      </trkpt>
      <trkpt lat="43.71413" lon="5.89813">
        <ele>398.20001220703</ele>
        <time>2022-11-07T11:39:21Z</time>
      </trkpt>
      <trkpt lat="43.71425" lon="5.89836">
        <ele>397.60000610352</ele>
        <time>2022-11-07T11:39:41Z</time>
      </trkpt>
      <trkpt lat="43.71421" lon="5.89846">
        <ele>398</ele>
        <time>2022-11-07T11:40:05Z</time>
      </trkpt>
      <trkpt lat="43.71409" lon="5.89859">
        <ele>398.20001220703</ele>
        <time>2022-11-07T11:40:27Z</time>
      </trkpt>
      <trkpt lat="43.71393" lon="5.89869">
        <ele>399.39999389648</ele>
        <time>2022-11-07T11:40:46Z</time>
      </trkpt>
      <trkpt lat="43.71382" lon="5.8986">
        <ele>401.20001220703</ele>
        <time>2022-11-07T11:41:04Z</time>
      </trkpt>
      <trkpt lat="43.71376" lon="5.89863">
        <ele>404.39999389648</ele>
        <time>2022-11-07T11:41:18Z</time>
      </trkpt>
      <trkpt lat="43.71373" lon="5.89876">
        <ele>406</ele>
        <time>2022-11-07T11:41:35Z</time>
      </trkpt>
      <trkpt lat="43.71355" lon="5.89882">
        <ele>407</ele>
        <time>2022-11-07T11:41:49Z</time>
      </trkpt>
      <trkpt lat="43.71347" lon="5.89887">
        <ele>408.20001220703</ele>
        <time>2022-11-07T11:42:07Z</time>
      </trkpt>
      <trkpt lat="43.71348" lon="5.89884">
        <ele>407.79998779297</ele>
        <time>2022-11-07T11:42:27Z</time>
      </trkpt>
      <trkpt lat="43.71347" lon="5.89888">
        <ele>408.20001220703</ele>
        <time>2022-11-07T11:44:36Z</time>
      </trkpt>
      <trkpt lat="43.71346" lon="5.89881">
        <ele>408.60000610352</ele>
        <time>2022-11-07T11:50:39Z</time>
      </trkpt>
      <trkpt lat="43.71347" lon="5.89885">
        <ele>408.60000610352</ele>
        <time>2022-11-07T11:51:31Z</time>
      </trkpt>
      <trkpt lat="43.71344" lon="5.8988">
        <ele>408.79998779297</ele>
        <time>2022-11-07T11:53:34Z</time>
      </trkpt>
      <trkpt lat="43.71345" lon="5.89886">
        <ele>408.60000610352</ele>
        <time>2022-11-07T11:54:56Z</time>
      </trkpt>
      <trkpt lat="43.71347" lon="5.89884">
        <ele>408.60000610352</ele>
        <time>2022-11-07T11:56:25Z</time>
      </trkpt>
      <trkpt lat="43.71347" lon="5.89881">
        <ele>408.79998779297</ele>
        <time>2022-11-07T11:57:37Z</time>
      </trkpt>
      <trkpt lat="43.71348" lon="5.89886">
        <ele>408.60000610352</ele>
        <time>2022-11-07T11:58:12Z</time>
      </trkpt>
      <trkpt lat="43.71351" lon="5.89883">
        <ele>408.79998779297</ele>
        <time>2022-11-07T11:59:21Z</time>
      </trkpt>
      <trkpt lat="43.71344" lon="5.89883">
        <ele>408.79998779297</ele>
        <time>2022-11-07T12:00:19Z</time>
      </trkpt>
      <trkpt lat="43.7135" lon="5.89888">
        <ele>409</ele>
        <time>2022-11-07T12:01:28Z</time>
      </trkpt>
      <trkpt lat="43.71348" lon="5.89882">
        <ele>409.20001220703</ele>
        <time>2022-11-07T12:02:20Z</time>
      </trkpt>
      <trkpt lat="43.71348" lon="5.89883">
        <ele>409.39999389648</ele>
        <time>2022-11-07T12:03:18Z</time>
      </trkpt>
      <trkpt lat="43.71349" lon="5.89885">
        <ele>409.60000610352</ele>
        <time>2022-11-07T12:04:37Z</time>
      </trkpt>
      <trkpt lat="43.7135" lon="5.89884">
        <ele>409.79998779297</ele>
        <time>2022-11-07T12:06:21Z</time>
      </trkpt>
      <trkpt lat="43.71348" lon="5.89884">
        <ele>409.60000610352</ele>
        <time>2022-11-07T12:07:18Z</time>
      </trkpt>
      <trkpt lat="43.71347" lon="5.89886">
        <ele>409.60000610352</ele>
        <time>2022-11-07T12:09:11Z</time>
      </trkpt>
      <trkpt lat="43.71348" lon="5.89885">
        <ele>409.79998779297</ele>
        <time>2022-11-07T12:11:27Z</time>
      </trkpt>
      <trkpt lat="43.71345" lon="5.89885">
        <ele>410</ele>
        <time>2022-11-07T12:12:43Z</time>
      </trkpt>
      <trkpt lat="43.71349" lon="5.89884">
        <ele>410</ele>
        <time>2022-11-07T12:14:33Z</time>
      </trkpt>
      <trkpt lat="43.7135" lon="5.89886">
        <ele>410.20001220703</ele>
        <time>2022-11-07T12:15:31Z</time>
      </trkpt>
      <trkpt lat="43.71346" lon="5.89886">
        <ele>410.20001220703</ele>
        <time>2022-11-07T12:16:44Z</time>
      </trkpt>
      <trkpt lat="43.71345" lon="5.89882">
        <ele>410.20001220703</ele>
        <time>2022-11-07T12:17:52Z</time>
      </trkpt>
      <trkpt lat="43.71346" lon="5.89879">
        <ele>410.60000610352</ele>
        <time>2022-11-07T12:18:40Z</time>
      </trkpt>
      <trkpt lat="43.71346" lon="5.89883">
        <ele>410.79998779297</ele>
        <time>2022-11-07T12:19:13Z</time>
      </trkpt>
      <trkpt lat="43.71345" lon="5.89883">
        <ele>410.79998779297</ele>
        <time>2022-11-07T12:19:20Z</time>
      </trkpt>
      <trkpt lat="43.71345" lon="5.89883">
        <ele>410.79998779297</ele>
        <time>2022-11-07T12:19:49Z</time>
      </trkpt>
      <trkpt lat="43.71346" lon="5.89884">
        <ele>410.39999389648</ele>
        <time>2022-11-07T12:20:52Z</time>
      </trkpt>
      <trkpt lat="43.71345" lon="5.89882">
        <ele>410.39999389648</ele>
        <time>2022-11-07T12:23:05Z</time>
      </trkpt>
      <trkpt lat="43.71346" lon="5.89881">
        <ele>410.79998779297</ele>
        <time>2022-11-07T12:27:42Z</time>
      </trkpt>
      <trkpt lat="43.71348" lon="5.89881">
        <ele>411</ele>
        <time>2022-11-07T12:28:33Z</time>
      </trkpt>
      <trkpt lat="43.7135" lon="5.89885">
        <ele>411</ele>
        <time>2022-11-07T12:29:24Z</time>
      </trkpt>
      <trkpt lat="43.71348" lon="5.89884">
        <ele>410.79998779297</ele>
        <time>2022-11-07T12:30:22Z</time>
      </trkpt>
      <trkpt lat="43.71346" lon="5.89888">
        <ele>412.20001220703</ele>
        <time>2022-11-07T12:31:01Z</time>
      </trkpt>
      <trkpt lat="43.71348" lon="5.89885">
        <ele>412.20001220703</ele>
        <time>2022-11-07T12:31:39Z</time>
      </trkpt>
      <trkpt lat="43.71343" lon="5.89884">
        <ele>412.20001220703</ele>
        <time>2022-11-07T12:32:09Z</time>
      </trkpt>
      <trkpt lat="43.7134" lon="5.89887">
        <ele>412.20001220703</ele>
        <time>2022-11-07T12:32:47Z</time>
      </trkpt>
      <trkpt lat="43.71338" lon="5.89888">
        <ele>412.20001220703</ele>
        <time>2022-11-07T12:33:20Z</time>
      </trkpt>
      <trkpt lat="43.7134" lon="5.89881">
        <ele>412</ele>
        <time>2022-11-07T12:33:51Z</time>
      </trkpt>
      <trkpt lat="43.71329" lon="5.89882">
        <ele>412.39999389648</ele>
        <time>2022-11-07T12:34:13Z</time>
      </trkpt>
      <trkpt lat="43.71309" lon="5.89883">
        <ele>415</ele>
        <time>2022-11-07T12:34:41Z</time>
      </trkpt>
      <trkpt lat="43.71294" lon="5.89893">
        <ele>417</ele>
        <time>2022-11-07T12:35:07Z</time>
      </trkpt>
      <trkpt lat="43.71292" lon="5.89917">
        <ele>417.39999389648</ele>
        <time>2022-11-07T12:35:29Z</time>
      </trkpt>
      <trkpt lat="43.71285" lon="5.89943">
        <ele>416.79998779297</ele>
        <time>2022-11-07T12:35:53Z</time>
      </trkpt>
      <trkpt lat="43.71278" lon="5.8997">
        <ele>417</ele>
        <time>2022-11-07T12:36:15Z</time>
      </trkpt>
      <trkpt lat="43.71273" lon="5.89993">
        <ele>417.39999389648</ele>
        <time>2022-11-07T12:36:32Z</time>
      </trkpt>
      <trkpt lat="43.71268" lon="5.90006">
        <ele>418.39999389648</ele>
        <time>2022-11-07T12:36:48Z</time>
      </trkpt>
      <trkpt lat="43.71258" lon="5.90008">
        <ele>420</ele>
        <time>2022-11-07T12:37:11Z</time>
      </trkpt>
      <trkpt lat="43.7124" lon="5.90011">
        <ele>420.20001220703</ele>
        <time>2022-11-07T12:37:30Z</time>
      </trkpt>
      <trkpt lat="43.71235" lon="5.90015">
        <ele>421.20001220703</ele>
        <time>2022-11-07T12:37:38Z</time>
      </trkpt>
      <trkpt lat="43.71218" lon="5.90025">
        <ele>422.39999389648</ele>
        <time>2022-11-07T12:38:00Z</time>
      </trkpt>
      <trkpt lat="43.71199" lon="5.9003">
        <ele>423.79998779297</ele>
        <time>2022-11-07T12:38:24Z</time>
      </trkpt>
      <trkpt lat="43.71184" lon="5.90035">
        <ele>425</ele>
        <time>2022-11-07T12:38:41Z</time>
      </trkpt>
      <trkpt lat="43.7117" lon="5.9003">
        <ele>425.60000610352</ele>
        <time>2022-11-07T12:38:59Z</time>
      </trkpt>
      <trkpt lat="43.71157" lon="5.90021">
        <ele>427</ele>
        <time>2022-11-07T12:39:20Z</time>
      </trkpt>
      <trkpt lat="43.71146" lon="5.90022">
        <ele>429.20001220703</ele>
        <time>2022-11-07T12:39:38Z</time>
      </trkpt>
      <trkpt lat="43.71134" lon="5.90025">
        <ele>431.20001220703</ele>
        <time>2022-11-07T12:39:55Z</time>
      </trkpt>
      <trkpt lat="43.71122" lon="5.90031">
        <ele>431.79998779297</ele>
        <time>2022-11-07T12:40:12Z</time>
      </trkpt>
      <trkpt lat="43.71109" lon="5.90044">
        <ele>433</ele>
        <time>2022-11-07T12:40:32Z</time>
      </trkpt>
      <trkpt lat="43.71101" lon="5.90062">
        <ele>435</ele>
        <time>2022-11-07T12:40:52Z</time>
      </trkpt>
      <trkpt lat="43.71091" lon="5.90074">
        <ele>437</ele>
        <time>2022-11-07T12:41:09Z</time>
      </trkpt>
      <trkpt lat="43.71081" lon="5.90092">
        <ele>437.39999389648</ele>
        <time>2022-11-07T12:41:28Z</time>
      </trkpt>
      <trkpt lat="43.71069" lon="5.90107">
        <ele>439.79998779297</ele>
        <time>2022-11-07T12:41:52Z</time>
      </trkpt>
      <trkpt lat="43.71056" lon="5.90112">
        <ele>442.60000610352</ele>
        <time>2022-11-07T12:42:10Z</time>
      </trkpt>
      <trkpt lat="43.71041" lon="5.90119">
        <ele>444.79998779297</ele>
        <time>2022-11-07T12:42:29Z</time>
      </trkpt>
      <trkpt lat="43.71021" lon="5.90127">
        <ele>447.79998779297</ele>
        <time>2022-11-07T12:42:53Z</time>
      </trkpt>
      <trkpt lat="43.7101" lon="5.90134">
        <ele>450</ele>
        <time>2022-11-07T12:43:09Z</time>
      </trkpt>
      <trkpt lat="43.71" lon="5.90142">
        <ele>451</ele>
        <time>2022-11-07T12:43:24Z</time>
      </trkpt>
      <trkpt lat="43.7098" lon="5.90157">
        <ele>454</ele>
        <time>2022-11-07T12:43:50Z</time>
      </trkpt>
      <trkpt lat="43.70959" lon="5.90168">
        <ele>455.60000610352</ele>
        <time>2022-11-07T12:44:13Z</time>
      </trkpt>
      <trkpt lat="43.70948" lon="5.90184">
        <ele>458</ele>
        <time>2022-11-07T12:44:32Z</time>
      </trkpt>
      <trkpt lat="43.70936" lon="5.90204">
        <ele>460.39999389648</ele>
        <time>2022-11-07T12:44:54Z</time>
      </trkpt>
      <trkpt lat="43.70922" lon="5.90224">
        <ele>462.79998779297</ele>
        <time>2022-11-07T12:45:18Z</time>
      </trkpt>
      <trkpt lat="43.70904" lon="5.90241">
        <ele>465.39999389648</ele>
        <time>2022-11-07T12:45:45Z</time>
      </trkpt>
      <trkpt lat="43.70886" lon="5.90252">
        <ele>467.79998779297</ele>
        <time>2022-11-07T12:46:08Z</time>
      </trkpt>
      <trkpt lat="43.70862" lon="5.90266">
        <ele>470</ele>
        <time>2022-11-07T12:46:34Z</time>
      </trkpt>
      <trkpt lat="43.70851" lon="5.9028">
        <ele>471</ele>
        <time>2022-11-07T12:46:48Z</time>
      </trkpt>
      <trkpt lat="43.70827" lon="5.90305">
        <ele>472.39999389648</ele>
        <time>2022-11-07T12:47:16Z</time>
      </trkpt>
      <trkpt lat="43.70812" lon="5.9031">
        <ele>473.39999389648</ele>
        <time>2022-11-07T12:47:32Z</time>
      </trkpt>
      <trkpt lat="43.70794" lon="5.90318">
        <ele>475.20001220703</ele>
        <time>2022-11-07T12:47:51Z</time>
      </trkpt>
      <trkpt lat="43.70785" lon="5.90322">
        <ele>476.20001220703</ele>
        <time>2022-11-07T12:48:04Z</time>
      </trkpt>
      <trkpt lat="43.70768" lon="5.90337">
        <ele>478</ele>
        <time>2022-11-07T12:48:27Z</time>
      </trkpt>
      <trkpt lat="43.70753" lon="5.90344">
        <ele>479.20001220703</ele>
        <time>2022-11-07T12:48:43Z</time>
      </trkpt>
      <trkpt lat="43.70746" lon="5.90352">
        <ele>479.39999389648</ele>
        <time>2022-11-07T12:48:52Z</time>
      </trkpt>
      <trkpt lat="43.70737" lon="5.9037">
        <ele>479.60000610352</ele>
        <time>2022-11-07T12:49:10Z</time>
      </trkpt>
      <trkpt lat="43.70727" lon="5.90383">
        <ele>479.79998779297</ele>
        <time>2022-11-07T12:49:30Z</time>
      </trkpt>
      <trkpt lat="43.70728" lon="5.90402">
        <ele>481</ele>
        <time>2022-11-07T12:49:54Z</time>
      </trkpt>
      <trkpt lat="43.70721" lon="5.90409">
        <ele>483</ele>
        <time>2022-11-07T12:50:14Z</time>
      </trkpt>
      <trkpt lat="43.70721" lon="5.90406">
        <ele>484.20001220703</ele>
        <time>2022-11-07T12:50:40Z</time>
      </trkpt>
      <trkpt lat="43.70714" lon="5.90391">
        <ele>484.20001220703</ele>
        <time>2022-11-07T12:50:57Z</time>
      </trkpt>
      <trkpt lat="43.70687" lon="5.90393">
        <ele>484</ele>
        <time>2022-11-07T12:51:23Z</time>
      </trkpt>
      <trkpt lat="43.70675" lon="5.90395">
        <ele>483.20001220703</ele>
        <time>2022-11-07T12:51:39Z</time>
      </trkpt>
      <trkpt lat="43.70653" lon="5.904">
        <ele>481.20001220703</ele>
        <time>2022-11-07T12:52:07Z</time>
      </trkpt>
      <trkpt lat="43.70639" lon="5.90397">
        <ele>479.20001220703</ele>
        <time>2022-11-07T12:52:25Z</time>
      </trkpt>
      <trkpt lat="43.70635" lon="5.90397">
        <ele>478.60000610352</ele>
        <time>2022-11-07T12:52:30Z</time>
      </trkpt>
      <trkpt lat="43.70622" lon="5.90403">
        <ele>477</ele>
        <time>2022-11-07T12:52:46Z</time>
      </trkpt>
      <trkpt lat="43.70602" lon="5.90414">
        <ele>474.39999389648</ele>
        <time>2022-11-07T12:53:11Z</time>
      </trkpt>
      <trkpt lat="43.70585" lon="5.90424">
        <ele>473</ele>
        <time>2022-11-07T12:53:34Z</time>
      </trkpt>
      <trkpt lat="43.70564" lon="5.90434">
        <ele>471.39999389648</ele>
        <time>2022-11-07T12:53:56Z</time>
      </trkpt>
      <trkpt lat="43.70544" lon="5.90441">
        <ele>469.20001220703</ele>
        <time>2022-11-07T12:54:17Z</time>
      </trkpt>
      <trkpt lat="43.70526" lon="5.90445">
        <ele>468.39999389648</ele>
        <time>2022-11-07T12:54:31Z</time>
      </trkpt>
      <trkpt lat="43.70512" lon="5.90446">
        <ele>467.60000610352</ele>
        <time>2022-11-07T12:54:48Z</time>
      </trkpt>
      <trkpt lat="43.70489" lon="5.90454">
        <ele>465.60000610352</ele>
        <time>2022-11-07T12:55:13Z</time>
      </trkpt>
      <trkpt lat="43.70472" lon="5.90457">
        <ele>464.20001220703</ele>
        <time>2022-11-07T12:55:37Z</time>
      </trkpt>
      <trkpt lat="43.70451" lon="5.90474">
        <ele>461.39999389648</ele>
        <time>2022-11-07T12:56:05Z</time>
      </trkpt>
      <trkpt lat="43.70433" lon="5.90464">
        <ele>459.20001220703</ele>
        <time>2022-11-07T12:56:27Z</time>
      </trkpt>
      <trkpt lat="43.70415" lon="5.90446">
        <ele>456.20001220703</ele>
        <time>2022-11-07T12:56:52Z</time>
      </trkpt>
      <trkpt lat="43.70401" lon="5.90435">
        <ele>454.20001220703</ele>
        <time>2022-11-07T12:57:13Z</time>
      </trkpt>
      <trkpt lat="43.70385" lon="5.90433">
        <ele>452.20001220703</ele>
        <time>2022-11-07T12:57:32Z</time>
      </trkpt>
      <trkpt lat="43.70361" lon="5.90431">
        <ele>449</ele>
        <time>2022-11-07T12:57:59Z</time>
      </trkpt>
      <trkpt lat="43.70346" lon="5.90426">
        <ele>447.39999389648</ele>
        <time>2022-11-07T12:58:18Z</time>
      </trkpt>
      <trkpt lat="43.70327" lon="5.90423">
        <ele>445.60000610352</ele>
        <time>2022-11-07T12:58:41Z</time>
      </trkpt>
      <trkpt lat="43.70305" lon="5.9041">
        <ele>443.20001220703</ele>
        <time>2022-11-07T12:59:05Z</time>
      </trkpt>
      <trkpt lat="43.70297" lon="5.9038">
        <ele>441.79998779297</ele>
        <time>2022-11-07T12:59:28Z</time>
      </trkpt>
      <trkpt lat="43.70282" lon="5.90346">
        <ele>440.60000610352</ele>
        <time>2022-11-07T12:59:55Z</time>
      </trkpt>
      <trkpt lat="43.70277" lon="5.90334">
        <ele>440.39999389648</ele>
        <time>2022-11-07T13:00:02Z</time>
      </trkpt>
      <trkpt lat="43.70266" lon="5.9031">
        <ele>439</ele>
        <time>2022-11-07T13:00:22Z</time>
      </trkpt>
      <trkpt lat="43.70255" lon="5.90288">
        <ele>437.39999389648</ele>
        <time>2022-11-07T13:00:43Z</time>
      </trkpt>
      <trkpt lat="43.70244" lon="5.90264">
        <ele>436.20001220703</ele>
        <time>2022-11-07T13:01:04Z</time>
      </trkpt>
      <trkpt lat="43.70231" lon="5.90235">
        <ele>435</ele>
        <time>2022-11-07T13:01:26Z</time>
      </trkpt>
      <trkpt lat="43.70221" lon="5.9021">
        <ele>434</ele>
        <time>2022-11-07T13:01:46Z</time>
      </trkpt>
      <trkpt lat="43.70205" lon="5.90183">
        <ele>432.39999389648</ele>
        <time>2022-11-07T13:02:08Z</time>
      </trkpt>
      <trkpt lat="43.70196" lon="5.90177">
        <ele>431.79998779297</ele>
        <time>2022-11-07T13:02:16Z</time>
      </trkpt>
      <trkpt lat="43.7018" lon="5.90168">
        <ele>430.79998779297</ele>
        <time>2022-11-07T13:02:31Z</time>
      </trkpt>
      <trkpt lat="43.70176" lon="5.90167">
        <ele>430.39999389648</ele>
        <time>2022-11-07T13:02:35Z</time>
      </trkpt>
      <trkpt lat="43.7017" lon="5.90173">
        <ele>429.79998779297</ele>
        <time>2022-11-07T13:02:42Z</time>
      </trkpt>
      <trkpt lat="43.70167" lon="5.90178">
        <ele>429.39999389648</ele>
        <time>2022-11-07T13:02:46Z</time>
      </trkpt>
      <trkpt lat="43.70156" lon="5.90207">
        <ele>429.60000610352</ele>
        <time>2022-11-07T13:03:07Z</time>
      </trkpt>
      <trkpt lat="43.70147" lon="5.90228">
        <ele>430</ele>
        <time>2022-11-07T13:03:24Z</time>
      </trkpt>
      <trkpt lat="43.70138" lon="5.90255">
        <ele>430.39999389648</ele>
        <time>2022-11-07T13:03:43Z</time>
      </trkpt>
      <trkpt lat="43.70135" lon="5.90264">
        <ele>430.60000610352</ele>
        <time>2022-11-07T13:03:49Z</time>
      </trkpt>
      <trkpt lat="43.70132" lon="5.90276">
        <ele>430.79998779297</ele>
        <time>2022-11-07T13:03:59Z</time>
      </trkpt>
      <trkpt lat="43.70131" lon="5.90279">
        <ele>430.79998779297</ele>
        <time>2022-11-07T13:04:01Z</time>
      </trkpt>
      <trkpt lat="43.70129" lon="5.9031">
        <ele>431.20001220703</ele>
        <time>2022-11-07T13:04:20Z</time>
      </trkpt>
      <trkpt lat="43.70127" lon="5.90345">
        <ele>432</ele>
        <time>2022-11-07T13:04:42Z</time>
      </trkpt>
      <trkpt lat="43.70121" lon="5.90377">
        <ele>432.20001220703</ele>
        <time>2022-11-07T13:05:01Z</time>
      </trkpt>
      <trkpt lat="43.70114" lon="5.90399">
        <ele>432.60000610352</ele>
        <time>2022-11-07T13:05:18Z</time>
      </trkpt>
      <trkpt lat="43.70104" lon="5.90429">
        <ele>432.60000610352</ele>
        <time>2022-11-07T13:05:39Z</time>
      </trkpt>
      <trkpt lat="43.70091" lon="5.90464">
        <ele>432.60000610352</ele>
        <time>2022-11-07T13:06:03Z</time>
      </trkpt>
      <trkpt lat="43.70077" lon="5.90498">
        <ele>432.79998779297</ele>
        <time>2022-11-07T13:06:28Z</time>
      </trkpt>
      <trkpt lat="43.70064" lon="5.90528">
        <ele>432.79998779297</ele>
        <time>2022-11-07T13:06:50Z</time>
      </trkpt>
      <trkpt lat="43.70053" lon="5.90556">
        <ele>432.60000610352</ele>
        <time>2022-11-07T13:07:10Z</time>
      </trkpt>
      <trkpt lat="43.70042" lon="5.90589">
        <ele>432.60000610352</ele>
        <time>2022-11-07T13:07:33Z</time>
      </trkpt>
      <trkpt lat="43.70029" lon="5.90623">
        <ele>432.79998779297</ele>
        <time>2022-11-07T13:07:57Z</time>
      </trkpt>
      <trkpt lat="43.70021" lon="5.90642">
        <ele>432.79998779297</ele>
        <time>2022-11-07T13:08:13Z</time>
      </trkpt>
      <trkpt lat="43.70009" lon="5.90674">
        <ele>433.20001220703</ele>
        <time>2022-11-07T13:08:38Z</time>
      </trkpt>
      <trkpt lat="43.70003" lon="5.90688">
        <ele>433.20001220703</ele>
        <time>2022-11-07T13:08:49Z</time>
      </trkpt>
      <trkpt lat="43.69992" lon="5.90708">
        <ele>433.39999389648</ele>
        <time>2022-11-07T13:09:06Z</time>
      </trkpt>
      <trkpt lat="43.69976" lon="5.90736">
        <ele>433.39999389648</ele>
        <time>2022-11-07T13:09:29Z</time>
      </trkpt>
      <trkpt lat="43.69961" lon="5.90767">
        <ele>433.79998779297</ele>
        <time>2022-11-07T13:09:53Z</time>
      </trkpt>
      <trkpt lat="43.6995" lon="5.90786">
        <ele>433.79998779297</ele>
        <time>2022-11-07T13:10:09Z</time>
      </trkpt>
      <trkpt lat="43.69936" lon="5.9079">
        <ele>434.20001220703</ele>
        <time>2022-11-07T13:10:24Z</time>
      </trkpt>
      <trkpt lat="43.69918" lon="5.90772">
        <ele>434</ele>
        <time>2022-11-07T13:10:43Z</time>
      </trkpt>
      <trkpt lat="43.69907" lon="5.90758">
        <ele>434.39999389648</ele>
        <time>2022-11-07T13:10:59Z</time>
      </trkpt>
      <trkpt lat="43.69895" lon="5.90741">
        <ele>434.79998779297</ele>
        <time>2022-11-07T13:11:16Z</time>
      </trkpt>
      <trkpt lat="43.69892" lon="5.90735">
        <ele>434.79998779297</ele>
        <time>2022-11-07T13:11:34Z</time>
      </trkpt>
      <trkpt lat="43.69879" lon="5.90721">
        <ele>435</ele>
        <time>2022-11-07T13:11:50Z</time>
      </trkpt>
      <trkpt lat="43.69867" lon="5.90713">
        <ele>435.20001220703</ele>
        <time>2022-11-07T13:12:05Z</time>
      </trkpt>
      <trkpt lat="43.69845" lon="5.90685">
        <ele>435.20001220703</ele>
        <time>2022-11-07T13:12:29Z</time>
      </trkpt>
      <trkpt lat="43.69829" lon="5.90669">
        <ele>435.60000610352</ele>
        <time>2022-11-07T13:12:45Z</time>
      </trkpt>
      <trkpt lat="43.69813" lon="5.90662">
        <ele>435.79998779297</ele>
        <time>2022-11-07T13:13:01Z</time>
      </trkpt>
      <trkpt lat="43.698" lon="5.90654">
        <ele>436.60000610352</ele>
        <time>2022-11-07T13:13:14Z</time>
      </trkpt>
      <trkpt lat="43.69781" lon="5.90643">
        <ele>437.60000610352</ele>
        <time>2022-11-07T13:13:31Z</time>
      </trkpt>
      <trkpt lat="43.69773" lon="5.90639">
        <ele>437.79998779297</ele>
        <time>2022-11-07T13:13:39Z</time>
      </trkpt>
      <trkpt lat="43.69767" lon="5.9064">
        <ele>439.20001220703</ele>
        <time>2022-11-07T13:13:55Z</time>
      </trkpt>
      <trkpt lat="43.69767" lon="5.90641">
        <ele>439.60000610352</ele>
        <time>2022-11-07T13:14:42Z</time>
      </trkpt>
      <trkpt lat="43.69768" lon="5.9064">
        <ele>439.39999389648</ele>
        <time>2022-11-07T13:15:30Z</time>
      </trkpt>
      <trkpt lat="43.69765" lon="5.90639">
        <ele>439.60000610352</ele>
        <time>2022-11-07T13:16:13Z</time>
      </trkpt>
      <trkpt lat="43.69743" lon="5.90637">
        <ele>440.79998779297</ele>
        <time>2022-11-07T13:16:38Z</time>
      </trkpt>
      <trkpt lat="43.69717" lon="5.90651">
        <ele>442.79998779297</ele>
        <time>2022-11-07T13:17:05Z</time>
      </trkpt>
      <trkpt lat="43.69701" lon="5.90659">
        <ele>444.79998779297</ele>
        <time>2022-11-07T13:17:21Z</time>
      </trkpt>
      <trkpt lat="43.6968" lon="5.90665">
        <ele>447.79998779297</ele>
        <time>2022-11-07T13:17:44Z</time>
      </trkpt>
      <trkpt lat="43.69662" lon="5.90673">
        <ele>450.79998779297</ele>
        <time>2022-11-07T13:18:07Z</time>
      </trkpt>
      <trkpt lat="43.69645" lon="5.90681">
        <ele>453.60000610352</ele>
        <time>2022-11-07T13:18:29Z</time>
      </trkpt>
      <trkpt lat="43.69624" lon="5.90681">
        <ele>456</ele>
        <time>2022-11-07T13:18:53Z</time>
      </trkpt>
      <trkpt lat="43.69606" lon="5.90677">
        <ele>459</ele>
        <time>2022-11-07T13:19:16Z</time>
      </trkpt>
      <trkpt lat="43.69582" lon="5.90681">
        <ele>462</ele>
        <time>2022-11-07T13:19:39Z</time>
      </trkpt>
      <trkpt lat="43.69566" lon="5.90705">
        <ele>463.79998779297</ele>
        <time>2022-11-07T13:20:00Z</time>
      </trkpt>
      <trkpt lat="43.6954" lon="5.90734">
        <ele>462.39999389648</ele>
        <time>2022-11-07T13:20:31Z</time>
      </trkpt>
      <trkpt lat="43.69534" lon="5.90744">
        <ele>462.20001220703</ele>
        <time>2022-11-07T13:20:38Z</time>
      </trkpt>
      <trkpt lat="43.69516" lon="5.90766">
        <ele>462</ele>
        <time>2022-11-07T13:20:58Z</time>
      </trkpt>
      <trkpt lat="43.69507" lon="5.90781">
        <ele>462.20001220703</ele>
        <time>2022-11-07T13:21:13Z</time>
      </trkpt>
      <trkpt lat="43.695" lon="5.90789">
        <ele>462.60000610352</ele>
        <time>2022-11-07T13:21:20Z</time>
      </trkpt>
      <trkpt lat="43.69495" lon="5.90794">
        <ele>462.60000610352</ele>
        <time>2022-11-07T13:21:24Z</time>
      </trkpt>
      <trkpt lat="43.6948" lon="5.90814">
        <ele>464.60000610352</ele>
        <time>2022-11-07T13:21:46Z</time>
      </trkpt>
      <trkpt lat="43.69464" lon="5.9083">
        <ele>467.79998779297</ele>
        <time>2022-11-07T13:22:10Z</time>
      </trkpt>
      <trkpt lat="43.69451" lon="5.90845">
        <ele>470.79998779297</ele>
        <time>2022-11-07T13:22:31Z</time>
      </trkpt>
      <trkpt lat="43.69435" lon="5.90846">
        <ele>472.79998779297</ele>
        <time>2022-11-07T13:22:51Z</time>
      </trkpt>
      <trkpt lat="43.69423" lon="5.9082">
        <ele>475.60000610352</ele>
        <time>2022-11-07T13:23:14Z</time>
      </trkpt>
      <trkpt lat="43.69424" lon="5.90794">
        <ele>478.60000610352</ele>
        <time>2022-11-07T13:23:37Z</time>
      </trkpt>
      <trkpt lat="43.69428" lon="5.90769">
        <ele>481.60000610352</ele>
        <time>2022-11-07T13:23:59Z</time>
      </trkpt>
      <trkpt lat="43.69439" lon="5.90762">
        <ele>483.60000610352</ele>
        <time>2022-11-07T13:24:27Z</time>
      </trkpt>
      <trkpt lat="43.6944" lon="5.9076">
        <ele>483.79998779297</ele>
        <time>2022-11-07T13:24:48Z</time>
      </trkpt>
      <trkpt lat="43.69439" lon="5.90757">
        <ele>483.79998779297</ele>
        <time>2022-11-07T13:24:53Z</time>
      </trkpt>
      <trkpt lat="43.69432" lon="5.90751">
        <ele>483.39999389648</ele>
        <time>2022-11-07T13:25:38Z</time>
      </trkpt>
      <trkpt lat="43.69429" lon="5.90772">
        <ele>483.39999389648</ele>
        <time>2022-11-07T13:26:07Z</time>
      </trkpt>
      <trkpt lat="43.6943" lon="5.9077">
        <ele>483.20001220703</ele>
        <time>2022-11-07T13:26:33Z</time>
      </trkpt>
      <trkpt lat="43.69427" lon="5.90764">
        <ele>482.79998779297</ele>
        <time>2022-11-07T13:27:12Z</time>
      </trkpt>
      <trkpt lat="43.69432" lon="5.90756">
        <ele>483.20001220703</ele>
        <time>2022-11-07T13:27:38Z</time>
      </trkpt>
      <trkpt lat="43.6943" lon="5.90757">
        <ele>483.20001220703</ele>
        <time>2022-11-07T13:27:41Z</time>
      </trkpt>
      <trkpt lat="43.69427" lon="5.90747">
        <ele>483.60000610352</ele>
        <time>2022-11-07T13:28:00Z</time>
      </trkpt>
      <trkpt lat="43.69425" lon="5.90754">
        <ele>483.79998779297</ele>
        <time>2022-11-07T13:28:21Z</time>
      </trkpt>
      <trkpt lat="43.69422" lon="5.90755">
        <ele>483.39999389648</ele>
        <time>2022-11-07T13:28:33Z</time>
      </trkpt>
      <trkpt lat="43.69423" lon="5.90755">
        <ele>483.20001220703</ele>
        <time>2022-11-07T13:28:36Z</time>
      </trkpt>
      <trkpt lat="43.69424" lon="5.90749">
        <ele>483.79998779297</ele>
        <time>2022-11-07T13:28:54Z</time>
      </trkpt>
      <trkpt lat="43.69424" lon="5.90746">
        <ele>483.79998779297</ele>
        <time>2022-11-07T13:29:09Z</time>
      </trkpt>
      <trkpt lat="43.69421" lon="5.90755">
        <ele>483.79998779297</ele>
        <time>2022-11-07T13:29:26Z</time>
      </trkpt>
      <trkpt lat="43.69418" lon="5.90748">
        <ele>485.60000610352</ele>
        <time>2022-11-07T13:29:50Z</time>
      </trkpt>
      <trkpt lat="43.6942" lon="5.90755">
        <ele>485.60000610352</ele>
        <time>2022-11-07T13:30:19Z</time>
      </trkpt>
      <trkpt lat="43.69424" lon="5.9076">
        <ele>483.79998779297</ele>
        <time>2022-11-07T13:30:40Z</time>
      </trkpt>
      <trkpt lat="43.69424" lon="5.90754">
        <ele>483.60000610352</ele>
        <time>2022-11-07T13:30:44Z</time>
      </trkpt>
      <trkpt lat="43.69425" lon="5.90745">
        <ele>483.60000610352</ele>
        <time>2022-11-07T13:31:01Z</time>
      </trkpt>
      <trkpt lat="43.69428" lon="5.90751">
        <ele>483.39999389648</ele>
        <time>2022-11-07T13:31:26Z</time>
      </trkpt>
      <trkpt lat="43.69429" lon="5.90756">
        <ele>483.60000610352</ele>
        <time>2022-11-07T13:32:03Z</time>
      </trkpt>
      <trkpt lat="43.69427" lon="5.90761">
        <ele>483.60000610352</ele>
        <time>2022-11-07T13:32:36Z</time>
      </trkpt>
      <trkpt lat="43.69428" lon="5.90768">
        <ele>483.20001220703</ele>
        <time>2022-11-07T13:32:57Z</time>
      </trkpt>
      <trkpt lat="43.6943" lon="5.90771">
        <ele>482.60000610352</ele>
        <time>2022-11-07T13:33:10Z</time>
      </trkpt>
      <trkpt lat="43.69422" lon="5.90762">
        <ele>483.39999389648</ele>
        <time>2022-11-07T13:33:35Z</time>
      </trkpt>
      <trkpt lat="43.69418" lon="5.90758">
        <ele>484.60000610352</ele>
        <time>2022-11-07T13:33:55Z</time>
      </trkpt>
      <trkpt lat="43.69415" lon="5.90752">
        <ele>485</ele>
        <time>2022-11-07T13:34:07Z</time>
      </trkpt>
      <trkpt lat="43.69417" lon="5.90754">
        <ele>485.39999389648</ele>
        <time>2022-11-07T13:34:51Z</time>
      </trkpt>
      <trkpt lat="43.69418" lon="5.90759">
        <ele>485.60000610352</ele>
        <time>2022-11-07T13:35:49Z</time>
      </trkpt>
      <trkpt lat="43.69417" lon="5.90756">
        <ele>485.60000610352</ele>
        <time>2022-11-07T13:36:15Z</time>
      </trkpt>
      <trkpt lat="43.69426" lon="5.90748">
        <ele>484.60000610352</ele>
        <time>2022-11-07T13:36:36Z</time>
      </trkpt>
      <trkpt lat="43.69427" lon="5.90741">
        <ele>484.60000610352</ele>
        <time>2022-11-07T13:36:55Z</time>
      </trkpt>
      <trkpt lat="43.69431" lon="5.90729">
        <ele>484.79998779297</ele>
        <time>2022-11-07T13:37:03Z</time>
      </trkpt>
      <trkpt lat="43.69447" lon="5.90702">
        <ele>488</ele>
        <time>2022-11-07T13:37:24Z</time>
      </trkpt>
      <trkpt lat="43.69461" lon="5.90672">
        <ele>490.60000610352</ele>
        <time>2022-11-07T13:37:48Z</time>
      </trkpt>
      <trkpt lat="43.69476" lon="5.9065">
        <ele>492.79998779297</ele>
        <time>2022-11-07T13:38:09Z</time>
      </trkpt>
      <trkpt lat="43.69484" lon="5.9063">
        <ele>494.79998779297</ele>
        <time>2022-11-07T13:38:32Z</time>
      </trkpt>
      <trkpt lat="43.69477" lon="5.90622">
        <ele>496.39999389648</ele>
        <time>2022-11-07T13:38:47Z</time>
      </trkpt>
      <trkpt lat="43.69458" lon="5.90643">
        <ele>497.79998779297</ele>
        <time>2022-11-07T13:39:15Z</time>
      </trkpt>
      <trkpt lat="43.69445" lon="5.90651">
        <ele>499.79998779297</ele>
        <time>2022-11-07T13:39:37Z</time>
      </trkpt>
      <trkpt lat="43.69425" lon="5.90671">
        <ele>501.39999389648</ele>
        <time>2022-11-07T13:40:01Z</time>
      </trkpt>
      <trkpt lat="43.69416" lon="5.90681">
        <ele>501.79998779297</ele>
        <time>2022-11-07T13:40:12Z</time>
      </trkpt>
      <trkpt lat="43.69395" lon="5.90703">
        <ele>503</ele>
        <time>2022-11-07T13:40:34Z</time>
      </trkpt>
      <trkpt lat="43.69381" lon="5.90712">
        <ele>504.39999389648</ele>
        <time>2022-11-07T13:40:52Z</time>
      </trkpt>
      <trkpt lat="43.69365" lon="5.90731">
        <ele>507.39999389648</ele>
        <time>2022-11-07T13:41:17Z</time>
      </trkpt>
      <trkpt lat="43.69348" lon="5.9075">
        <ele>510.60000610352</ele>
        <time>2022-11-07T13:41:43Z</time>
      </trkpt>
      <trkpt lat="43.69331" lon="5.9077">
        <ele>513.59997558594</ele>
        <time>2022-11-07T13:42:07Z</time>
      </trkpt>
      <trkpt lat="43.69323" lon="5.90762">
        <ele>516.59997558594</ele>
        <time>2022-11-07T13:42:29Z</time>
      </trkpt>
      <trkpt lat="43.69323" lon="5.90759">
        <ele>517</ele>
        <time>2022-11-07T13:42:31Z</time>
      </trkpt>
      <trkpt lat="43.69329" lon="5.90737">
        <ele>518</ele>
        <time>2022-11-07T13:42:46Z</time>
      </trkpt>
      <trkpt lat="43.69336" lon="5.9072">
        <ele>519</ele>
        <time>2022-11-07T13:43:01Z</time>
      </trkpt>
      <trkpt lat="43.69347" lon="5.90691">
        <ele>520.79998779297</ele>
        <time>2022-11-07T13:43:26Z</time>
      </trkpt>
      <trkpt lat="43.6935" lon="5.9068">
        <ele>521.40002441406</ele>
        <time>2022-11-07T13:43:34Z</time>
      </trkpt>
      <trkpt lat="43.69364" lon="5.90647">
        <ele>524.20001220703</ele>
        <time>2022-11-07T13:44:01Z</time>
      </trkpt>
      <trkpt lat="43.6936" lon="5.90629">
        <ele>526.40002441406</ele>
        <time>2022-11-07T13:44:21Z</time>
      </trkpt>
      <trkpt lat="43.69336" lon="5.90627">
        <ele>529.20001220703</ele>
        <time>2022-11-07T13:44:48Z</time>
      </trkpt>
      <trkpt lat="43.69315" lon="5.9063">
        <ele>532.40002441406</ele>
        <time>2022-11-07T13:45:14Z</time>
      </trkpt>
      <trkpt lat="43.69297" lon="5.90645">
        <ele>534.79998779297</ele>
        <time>2022-11-07T13:45:36Z</time>
      </trkpt>
      <trkpt lat="43.69277" lon="5.90666">
        <ele>537.59997558594</ele>
        <time>2022-11-07T13:46:02Z</time>
      </trkpt>
      <trkpt lat="43.6926" lon="5.90689">
        <ele>540.79998779297</ele>
        <time>2022-11-07T13:46:28Z</time>
      </trkpt>
      <trkpt lat="43.69241" lon="5.90709">
        <ele>543.79998779297</ele>
        <time>2022-11-07T13:46:55Z</time>
      </trkpt>
      <trkpt lat="43.69224" lon="5.90729">
        <ele>546.79998779297</ele>
        <time>2022-11-07T13:47:18Z</time>
      </trkpt>
      <trkpt lat="43.69213" lon="5.90736">
        <ele>549.20001220703</ele>
        <time>2022-11-07T13:47:37Z</time>
      </trkpt>
      <trkpt lat="43.6921" lon="5.90746">
        <ele>549.59997558594</ele>
        <time>2022-11-07T13:48:01Z</time>
      </trkpt>
      <trkpt lat="43.69198" lon="5.90757">
        <ele>550.40002441406</ele>
        <time>2022-11-07T13:48:22Z</time>
      </trkpt>
      <trkpt lat="43.69183" lon="5.90776">
        <ele>552</ele>
        <time>2022-11-07T13:48:45Z</time>
      </trkpt>
      <trkpt lat="43.69164" lon="5.90803">
        <ele>554.20001220703</ele>
        <time>2022-11-07T13:49:10Z</time>
      </trkpt>
      <trkpt lat="43.69149" lon="5.90826">
        <ele>556</ele>
        <time>2022-11-07T13:49:35Z</time>
      </trkpt>
      <trkpt lat="43.69132" lon="5.9085">
        <ele>557</ele>
        <time>2022-11-07T13:50:00Z</time>
      </trkpt>
      <trkpt lat="43.69124" lon="5.90857">
        <ele>557.20001220703</ele>
        <time>2022-11-07T13:50:07Z</time>
      </trkpt>
      <trkpt lat="43.69105" lon="5.90877">
        <ele>558.20001220703</ele>
        <time>2022-11-07T13:50:31Z</time>
      </trkpt>
      <trkpt lat="43.69087" lon="5.90892">
        <ele>560.40002441406</ele>
        <time>2022-11-07T13:50:55Z</time>
      </trkpt>
      <trkpt lat="43.69079" lon="5.90896">
        <ele>562.40002441406</ele>
        <time>2022-11-07T13:51:17Z</time>
      </trkpt>
      <trkpt lat="43.69076" lon="5.90904">
        <ele>562.59997558594</ele>
        <time>2022-11-07T13:51:43Z</time>
      </trkpt>
      <trkpt lat="43.69073" lon="5.90906">
        <ele>562.79998779297</ele>
        <time>2022-11-07T13:52:06Z</time>
      </trkpt>
      <trkpt lat="43.69068" lon="5.90903">
        <ele>563.20001220703</ele>
        <time>2022-11-07T13:52:32Z</time>
      </trkpt>
      <trkpt lat="43.69046" lon="5.909">
        <ele>564.79998779297</ele>
        <time>2022-11-07T13:52:56Z</time>
      </trkpt>
      <trkpt lat="43.69034" lon="5.90898">
        <ele>565.40002441406</ele>
        <time>2022-11-07T13:53:07Z</time>
      </trkpt>
      <trkpt lat="43.6902" lon="5.90895">
        <ele>566.79998779297</ele>
        <time>2022-11-07T13:53:21Z</time>
      </trkpt>
      <trkpt lat="43.69004" lon="5.9089">
        <ele>567.79998779297</ele>
        <time>2022-11-07T13:53:37Z</time>
      </trkpt>
      <trkpt lat="43.68999" lon="5.90886">
        <ele>568.20001220703</ele>
        <time>2022-11-07T13:53:44Z</time>
      </trkpt>
      <trkpt lat="43.68998" lon="5.9088">
        <ele>568.40002441406</ele>
        <time>2022-11-07T13:53:48Z</time>
      </trkpt>
      <trkpt lat="43.69" lon="5.90854">
        <ele>569.79998779297</ele>
        <time>2022-11-07T13:54:07Z</time>
      </trkpt>
      <trkpt lat="43.69008" lon="5.90836">
        <ele>570.79998779297</ele>
        <time>2022-11-07T13:54:23Z</time>
      </trkpt>
      <trkpt lat="43.69015" lon="5.90825">
        <ele>571.59997558594</ele>
        <time>2022-11-07T13:54:37Z</time>
      </trkpt>
      <trkpt lat="43.69024" lon="5.90814">
        <ele>572.20001220703</ele>
        <time>2022-11-07T13:54:51Z</time>
      </trkpt>
      <trkpt lat="43.69039" lon="5.9081">
        <ele>573.20001220703</ele>
        <time>2022-11-07T13:55:08Z</time>
      </trkpt>
      <trkpt lat="43.69048" lon="5.90814">
        <ele>574.59997558594</ele>
        <time>2022-11-07T13:55:20Z</time>
      </trkpt>
      <trkpt lat="43.69051" lon="5.90826">
        <ele>576</ele>
        <time>2022-11-07T13:55:33Z</time>
      </trkpt>
      <trkpt lat="43.69053" lon="5.90829">
        <ele>576</ele>
        <time>2022-11-07T13:55:36Z</time>
      </trkpt>
      <trkpt lat="43.69056" lon="5.90819">
        <ele>576.40002441406</ele>
        <time>2022-11-07T13:56:06Z</time>
      </trkpt>
      <trkpt lat="43.69018" lon="5.90827">
        <ele>576.40002441406</ele>
        <time>2022-11-07T13:56:31Z</time>
      </trkpt>
      <trkpt lat="43.69019" lon="5.90827">
        <ele>576.59997558594</ele>
        <time>2022-11-07T13:56:40Z</time>
      </trkpt>
      <trkpt lat="43.69024" lon="5.9083">
        <ele>576.40002441406</ele>
        <time>2022-11-07T13:57:01Z</time>
      </trkpt>
      <trkpt lat="43.69076" lon="5.90815">
        <ele>576.40002441406</ele>
        <time>2022-11-07T14:00:05Z</time>
      </trkpt>
      <trkpt lat="43.69071" lon="5.90814">
        <ele>576.40002441406</ele>
        <time>2022-11-07T14:00:25Z</time>
      </trkpt>
      <trkpt lat="43.69058" lon="5.90787">
        <ele>576.20001220703</ele>
        <time>2022-11-07T14:02:37Z</time>
      </trkpt>
      <trkpt lat="43.69065" lon="5.90802">
        <ele>576.20001220703</ele>
        <time>2022-11-07T14:03:00Z</time>
      </trkpt>
      <trkpt lat="43.69073" lon="5.90819">
        <ele>576.79998779297</ele>
        <time>2022-11-07T14:03:22Z</time>
      </trkpt>
      <trkpt lat="43.69077" lon="5.90828">
        <ele>576.79998779297</ele>
        <time>2022-11-07T14:03:30Z</time>
      </trkpt>
      <trkpt lat="43.69077" lon="5.90839">
        <ele>576</ele>
        <time>2022-11-07T14:03:46Z</time>
      </trkpt>
      <trkpt lat="43.69075" lon="5.90838">
        <ele>575.59997558594</ele>
        <time>2022-11-07T14:04:08Z</time>
      </trkpt>
      <trkpt lat="43.69075" lon="5.90838">
        <ele>575.59997558594</ele>
        <time>2022-11-07T14:04:09Z</time>
      </trkpt>
      <trkpt lat="43.69069" lon="5.90842">
        <ele>575</ele>
        <time>2022-11-07T14:04:26Z</time>
      </trkpt>
      <trkpt lat="43.69067" lon="5.90838">
        <ele>575</ele>
        <time>2022-11-07T14:04:47Z</time>
      </trkpt>
      <trkpt lat="43.69066" lon="5.90854">
        <ele>575.20001220703</ele>
        <time>2022-11-07T14:05:19Z</time>
      </trkpt>
      <trkpt lat="43.69077" lon="5.90855">
        <ele>575</ele>
        <time>2022-11-07T14:06:00Z</time>
      </trkpt>
      <trkpt lat="43.69079" lon="5.90853">
        <ele>575</ele>
        <time>2022-11-07T14:06:07Z</time>
      </trkpt>
      <trkpt lat="43.69082" lon="5.90839">
        <ele>575</ele>
        <time>2022-11-07T14:06:37Z</time>
      </trkpt>
      <trkpt lat="43.69082" lon="5.90837">
        <ele>575</ele>
        <time>2022-11-07T14:06:58Z</time>
      </trkpt>
      <trkpt lat="43.6908" lon="5.90837">
        <ele>575</ele>
        <time>2022-11-07T14:07:11Z</time>
      </trkpt>
      <trkpt lat="43.69095" lon="5.90824">
        <ele>575</ele>
        <time>2022-11-07T14:07:31Z</time>
      </trkpt>
      <trkpt lat="43.69098" lon="5.90814">
        <ele>575.79998779297</ele>
        <time>2022-11-07T14:07:55Z</time>
      </trkpt>
      <trkpt lat="43.69107" lon="5.90803">
        <ele>577</ele>
        <time>2022-11-07T14:08:15Z</time>
      </trkpt>
      <trkpt lat="43.69117" lon="5.90783">
        <ele>579.40002441406</ele>
        <time>2022-11-07T14:08:41Z</time>
      </trkpt>
      <trkpt lat="43.69122" lon="5.90774">
        <ele>580</ele>
        <time>2022-11-07T14:08:54Z</time>
      </trkpt>
      <trkpt lat="43.69129" lon="5.90766">
        <ele>580.59997558594</ele>
        <time>2022-11-07T14:09:11Z</time>
      </trkpt>
      <trkpt lat="43.69131" lon="5.90769">
        <ele>581.20001220703</ele>
        <time>2022-11-07T14:09:28Z</time>
      </trkpt>
      <trkpt lat="43.6913" lon="5.90774">
        <ele>584.20001220703</ele>
        <time>2022-11-07T14:09:50Z</time>
      </trkpt>
      <trkpt lat="43.69132" lon="5.90778">
        <ele>587.20001220703</ele>
        <time>2022-11-07T14:10:07Z</time>
      </trkpt>
      <trkpt lat="43.69128" lon="5.90778">
        <ele>587.20001220703</ele>
        <time>2022-11-07T14:10:53Z</time>
      </trkpt>
      <trkpt lat="43.69132" lon="5.90778">
        <ele>587.59997558594</ele>
        <time>2022-11-07T14:11:44Z</time>
      </trkpt>
      <trkpt lat="43.69131" lon="5.90777">
        <ele>587.59997558594</ele>
        <time>2022-11-07T14:12:08Z</time>
      </trkpt>
      <trkpt lat="43.6913" lon="5.90778">
        <ele>587.59997558594</ele>
        <time>2022-11-07T14:13:01Z</time>
      </trkpt>
      <trkpt lat="43.69125" lon="5.90779">
        <ele>587.79998779297</ele>
        <time>2022-11-07T14:13:18Z</time>
      </trkpt>
      <trkpt lat="43.69124" lon="5.90781">
        <ele>587.79998779297</ele>
        <time>2022-11-07T14:14:03Z</time>
      </trkpt>
      <trkpt lat="43.69129" lon="5.9078">
        <ele>587.79998779297</ele>
        <time>2022-11-07T14:14:39Z</time>
      </trkpt>
      <trkpt lat="43.69129" lon="5.90777">
        <ele>587.79998779297</ele>
        <time>2022-11-07T14:15:14Z</time>
      </trkpt>
      <trkpt lat="43.69128" lon="5.90782">
        <ele>587.79998779297</ele>
        <time>2022-11-07T14:15:42Z</time>
      </trkpt>
      <trkpt lat="43.69129" lon="5.90779">
        <ele>587.79998779297</ele>
        <time>2022-11-07T14:16:22Z</time>
      </trkpt>
      <trkpt lat="43.69127" lon="5.90779">
        <ele>587.59997558594</ele>
        <time>2022-11-07T14:17:31Z</time>
      </trkpt>
      <trkpt lat="43.69129" lon="5.90782">
        <ele>587.79998779297</ele>
        <time>2022-11-07T14:17:54Z</time>
      </trkpt>
      <trkpt lat="43.69132" lon="5.90778">
        <ele>587.59997558594</ele>
        <time>2022-11-07T14:18:14Z</time>
      </trkpt>
      <trkpt lat="43.69133" lon="5.90773">
        <ele>584.59997558594</ele>
        <time>2022-11-07T14:18:33Z</time>
      </trkpt>
      <trkpt lat="43.69133" lon="5.90768">
        <ele>581.59997558594</ele>
        <time>2022-11-07T14:18:43Z</time>
      </trkpt>
      <trkpt lat="43.6913" lon="5.90764">
        <ele>580.59997558594</ele>
        <time>2022-11-07T14:19:06Z</time>
      </trkpt>
      <trkpt lat="43.69127" lon="5.90765">
        <ele>581</ele>
        <time>2022-11-07T14:19:54Z</time>
      </trkpt>
      <trkpt lat="43.69135" lon="5.90758">
        <ele>581</ele>
        <time>2022-11-07T14:20:11Z</time>
      </trkpt>
      <trkpt lat="43.69144" lon="5.90745">
        <ele>580.59997558594</ele>
        <time>2022-11-07T14:20:25Z</time>
      </trkpt>
      <trkpt lat="43.69145" lon="5.90743">
        <ele>580.59997558594</ele>
        <time>2022-11-07T14:20:28Z</time>
      </trkpt>
      <trkpt lat="43.69157" lon="5.9072">
        <ele>580.59997558594</ele>
        <time>2022-11-07T14:20:47Z</time>
      </trkpt>
      <trkpt lat="43.6917" lon="5.90702">
        <ele>579.79998779297</ele>
        <time>2022-11-07T14:21:09Z</time>
      </trkpt>
      <trkpt lat="43.69183" lon="5.90683">
        <ele>579.59997558594</ele>
        <time>2022-11-07T14:21:29Z</time>
      </trkpt>
      <trkpt lat="43.69197" lon="5.9066">
        <ele>576.79998779297</ele>
        <time>2022-11-07T14:21:53Z</time>
      </trkpt>
      <trkpt lat="43.6921" lon="5.90638">
        <ele>573.79998779297</ele>
        <time>2022-11-07T14:22:16Z</time>
      </trkpt>
      <trkpt lat="43.69223" lon="5.90615">
        <ele>570.79998779297</ele>
        <time>2022-11-07T14:22:42Z</time>
      </trkpt>
      <trkpt lat="43.69237" lon="5.90594">
        <ele>567.79998779297</ele>
        <time>2022-11-07T14:23:03Z</time>
      </trkpt>
      <trkpt lat="43.69236" lon="5.90576">
        <ele>565.20001220703</ele>
        <time>2022-11-07T14:23:26Z</time>
      </trkpt>
      <trkpt lat="43.69236" lon="5.90575">
        <ele>565</ele>
        <time>2022-11-07T14:23:29Z</time>
      </trkpt>
      <trkpt lat="43.69243" lon="5.90576">
        <ele>563.59997558594</ele>
        <time>2022-11-07T14:23:51Z</time>
      </trkpt>
      <trkpt lat="43.69243" lon="5.90579">
        <ele>564.20001220703</ele>
        <time>2022-11-07T14:24:13Z</time>
      </trkpt>
      <trkpt lat="43.69249" lon="5.90583">
        <ele>564</ele>
        <time>2022-11-07T14:24:33Z</time>
      </trkpt>
      <trkpt lat="43.69252" lon="5.90582">
        <ele>564.20001220703</ele>
        <time>2022-11-07T14:24:54Z</time>
      </trkpt>
      <trkpt lat="43.69253" lon="5.90582">
        <ele>564.40002441406</ele>
        <time>2022-11-07T14:25:10Z</time>
      </trkpt>
      <trkpt lat="43.69263" lon="5.90582">
        <ele>563.79998779297</ele>
        <time>2022-11-07T14:25:42Z</time>
      </trkpt>
      <trkpt lat="43.69255" lon="5.90568">
        <ele>563.59997558594</ele>
        <time>2022-11-07T14:26:21Z</time>
      </trkpt>
      <trkpt lat="43.69258" lon="5.90564">
        <ele>563</ele>
        <time>2022-11-07T14:26:47Z</time>
      </trkpt>
      <trkpt lat="43.69253" lon="5.90562">
        <ele>562.79998779297</ele>
        <time>2022-11-07T14:26:49Z</time>
      </trkpt>
      <trkpt lat="43.6925" lon="5.9056">
        <ele>562.59997558594</ele>
        <time>2022-11-07T14:27:10Z</time>
      </trkpt>
      <trkpt lat="43.69255" lon="5.90556">
        <ele>562.59997558594</ele>
        <time>2022-11-07T14:27:14Z</time>
      </trkpt>
      <trkpt lat="43.69264" lon="5.90545">
        <ele>562.40002441406</ele>
        <time>2022-11-07T14:27:23Z</time>
      </trkpt>
      <trkpt lat="43.69277" lon="5.90528">
        <ele>562.40002441406</ele>
        <time>2022-11-07T14:27:39Z</time>
      </trkpt>
      <trkpt lat="43.69287" lon="5.90508">
        <ele>562.79998779297</ele>
        <time>2022-11-07T14:27:56Z</time>
      </trkpt>
      <trkpt lat="43.69292" lon="5.90501">
        <ele>563</ele>
        <time>2022-11-07T14:28:02Z</time>
      </trkpt>
      <trkpt lat="43.69302" lon="5.90483">
        <ele>563.79998779297</ele>
        <time>2022-11-07T14:28:18Z</time>
      </trkpt>
      <trkpt lat="43.69312" lon="5.90466">
        <ele>564.20001220703</ele>
        <time>2022-11-07T14:28:33Z</time>
      </trkpt>
      <trkpt lat="43.69319" lon="5.90461">
        <ele>564.20001220703</ele>
        <time>2022-11-07T14:28:40Z</time>
      </trkpt>
      <trkpt lat="43.69326" lon="5.9045">
        <ele>564.40002441406</ele>
        <time>2022-11-07T14:28:50Z</time>
      </trkpt>
      <trkpt lat="43.69328" lon="5.90446">
        <ele>564.40002441406</ele>
        <time>2022-11-07T14:28:54Z</time>
      </trkpt>
      <trkpt lat="43.69335" lon="5.90438">
        <ele>564.40002441406</ele>
        <time>2022-11-07T14:29:06Z</time>
      </trkpt>
      <trkpt lat="43.69347" lon="5.90424">
        <ele>564.20001220703</ele>
        <time>2022-11-07T14:29:29Z</time>
      </trkpt>
      <trkpt lat="43.69352" lon="5.90415">
        <ele>564.40002441406</ele>
        <time>2022-11-07T14:29:43Z</time>
      </trkpt>
      <trkpt lat="43.69351" lon="5.90413">
        <ele>563.79998779297</ele>
        <time>2022-11-07T14:29:59Z</time>
      </trkpt>
      <trkpt lat="43.69357" lon="5.90418">
        <ele>564.40002441406</ele>
        <time>2022-11-07T14:30:15Z</time>
      </trkpt>
      <trkpt lat="43.69364" lon="5.90404">
        <ele>563.79998779297</ele>
        <time>2022-11-07T14:30:33Z</time>
      </trkpt>
      <trkpt lat="43.69365" lon="5.90397">
        <ele>562.59997558594</ele>
        <time>2022-11-07T14:30:49Z</time>
      </trkpt>
      <trkpt lat="43.69366" lon="5.90398">
        <ele>562</ele>
        <time>2022-11-07T14:31:26Z</time>
      </trkpt>
      <trkpt lat="43.69371" lon="5.90392">
        <ele>561.79998779297</ele>
        <time>2022-11-07T14:32:08Z</time>
      </trkpt>
      <trkpt lat="43.69373" lon="5.90387">
        <ele>561.20001220703</ele>
        <time>2022-11-07T14:32:37Z</time>
      </trkpt>
      <trkpt lat="43.69367" lon="5.90395">
        <ele>561.20001220703</ele>
        <time>2022-11-07T14:32:54Z</time>
      </trkpt>
      <trkpt lat="43.69364" lon="5.90402">
        <ele>561.79998779297</ele>
        <time>2022-11-07T14:33:19Z</time>
      </trkpt>
      <trkpt lat="43.69364" lon="5.90399">
        <ele>562.20001220703</ele>
        <time>2022-11-07T14:33:36Z</time>
      </trkpt>
      <trkpt lat="43.69363" lon="5.90399">
        <ele>562</ele>
        <time>2022-11-07T14:34:08Z</time>
      </trkpt>
      <trkpt lat="43.69362" lon="5.90399">
        <ele>562</ele>
        <time>2022-11-07T14:34:52Z</time>
      </trkpt>
      <trkpt lat="43.69365" lon="5.90402">
        <ele>561.79998779297</ele>
        <time>2022-11-07T14:35:25Z</time>
      </trkpt>
      <trkpt lat="43.69359" lon="5.90417">
        <ele>562.79998779297</ele>
        <time>2022-11-07T14:35:46Z</time>
      </trkpt>
      <trkpt lat="43.6935" lon="5.9043">
        <ele>564.40002441406</ele>
        <time>2022-11-07T14:36:08Z</time>
      </trkpt>
      <trkpt lat="43.69347" lon="5.90433">
        <ele>564.59997558594</ele>
        <time>2022-11-07T14:36:11Z</time>
      </trkpt>
      <trkpt lat="43.69334" lon="5.90445">
        <ele>564.40002441406</ele>
        <time>2022-11-07T14:36:31Z</time>
      </trkpt>
      <trkpt lat="43.69333" lon="5.90446">
        <ele>564.79998779297</ele>
        <time>2022-11-07T14:36:41Z</time>
      </trkpt>
      <trkpt lat="43.69317" lon="5.90466">
        <ele>564.79998779297</ele>
        <time>2022-11-07T14:37:00Z</time>
      </trkpt>
      <trkpt lat="43.69307" lon="5.90482">
        <ele>565</ele>
        <time>2022-11-07T14:37:16Z</time>
      </trkpt>
      <trkpt lat="43.69293" lon="5.90508">
        <ele>564.59997558594</ele>
        <time>2022-11-07T14:37:38Z</time>
      </trkpt>
      <trkpt lat="43.69283" lon="5.90525">
        <ele>564</ele>
        <time>2022-11-07T14:37:51Z</time>
      </trkpt>
      <trkpt lat="43.6927" lon="5.90542">
        <ele>563</ele>
        <time>2022-11-07T14:38:08Z</time>
      </trkpt>
      <trkpt lat="43.69258" lon="5.90553">
        <ele>562.40002441406</ele>
        <time>2022-11-07T14:38:32Z</time>
      </trkpt>
      <trkpt lat="43.69244" lon="5.90572">
        <ele>563.20001220703</ele>
        <time>2022-11-07T14:38:53Z</time>
      </trkpt>
      <trkpt lat="43.69236" lon="5.90581">
        <ele>564.59997558594</ele>
        <time>2022-11-07T14:39:06Z</time>
      </trkpt>
      <trkpt lat="43.6922" lon="5.90589">
        <ele>565.79998779297</ele>
        <time>2022-11-07T14:39:26Z</time>
      </trkpt>
      <trkpt lat="43.69199" lon="5.90607">
        <ele>566.79998779297</ele>
        <time>2022-11-07T14:39:47Z</time>
      </trkpt>
      <trkpt lat="43.69182" lon="5.90622">
        <ele>568.79998779297</ele>
        <time>2022-11-07T14:40:08Z</time>
      </trkpt>
      <trkpt lat="43.69167" lon="5.90627">
        <ele>569.79998779297</ele>
        <time>2022-11-07T14:40:30Z</time>
      </trkpt>
      <trkpt lat="43.69154" lon="5.90638">
        <ele>570</ele>
        <time>2022-11-07T14:40:45Z</time>
      </trkpt>
      <trkpt lat="43.69143" lon="5.90653">
        <ele>570.20001220703</ele>
        <time>2022-11-07T14:40:55Z</time>
      </trkpt>
      <trkpt lat="43.69138" lon="5.90659">
        <ele>570.59997558594</ele>
        <time>2022-11-07T14:41:03Z</time>
      </trkpt>
      <trkpt lat="43.69129" lon="5.90681">
        <ele>571.40002441406</ele>
        <time>2022-11-07T14:41:51Z</time>
      </trkpt>
      <trkpt lat="43.69119" lon="5.90687">
        <ele>571.20001220703</ele>
        <time>2022-11-07T14:42:12Z</time>
      </trkpt>
      <trkpt lat="43.69119" lon="5.90688">
        <ele>571.20001220703</ele>
        <time>2022-11-07T14:42:14Z</time>
      </trkpt>
      <trkpt lat="43.69111" lon="5.90701">
        <ele>571.79998779297</ele>
        <time>2022-11-07T14:42:30Z</time>
      </trkpt>
      <trkpt lat="43.69109" lon="5.90709">
        <ele>572.20001220703</ele>
        <time>2022-11-07T14:42:42Z</time>
      </trkpt>
      <trkpt lat="43.69107" lon="5.90716">
        <ele>572.20001220703</ele>
        <time>2022-11-07T14:43:05Z</time>
      </trkpt>
      <trkpt lat="43.691" lon="5.90721">
        <ele>572</ele>
        <time>2022-11-07T14:43:52Z</time>
      </trkpt>
      <trkpt lat="43.69099" lon="5.90724">
        <ele>571.79998779297</ele>
        <time>2022-11-07T14:44:32Z</time>
      </trkpt>
      <trkpt lat="43.69097" lon="5.90724">
        <ele>571.79998779297</ele>
        <time>2022-11-07T14:44:36Z</time>
      </trkpt>
      <trkpt lat="43.69096" lon="5.90728">
        <ele>571.59997558594</ele>
        <time>2022-11-07T14:44:46Z</time>
      </trkpt>
      <trkpt lat="43.69098" lon="5.90736">
        <ele>571.59997558594</ele>
        <time>2022-11-07T14:44:52Z</time>
      </trkpt>
      <trkpt lat="43.69102" lon="5.90733">
        <ele>571.59997558594</ele>
        <time>2022-11-07T14:45:25Z</time>
      </trkpt>
      <trkpt lat="43.69094" lon="5.90738">
        <ele>571.59997558594</ele>
        <time>2022-11-07T14:45:57Z</time>
      </trkpt>
      <trkpt lat="43.69088" lon="5.90738">
        <ele>571.40002441406</ele>
        <time>2022-11-07T14:46:21Z</time>
      </trkpt>
      <trkpt lat="43.69082" lon="5.90743">
        <ele>571.20001220703</ele>
        <time>2022-11-07T14:46:44Z</time>
      </trkpt>
      <trkpt lat="43.69079" lon="5.90744">
        <ele>571.20001220703</ele>
        <time>2022-11-07T14:46:50Z</time>
      </trkpt>
      <trkpt lat="43.69063" lon="5.90749">
        <ele>570.20001220703</ele>
        <time>2022-11-07T14:47:19Z</time>
      </trkpt>
      <trkpt lat="43.69058" lon="5.90756">
        <ele>568.59997558594</ele>
        <time>2022-11-07T14:47:37Z</time>
      </trkpt>
      <trkpt lat="43.69054" lon="5.90759">
        <ele>568.59997558594</ele>
        <time>2022-11-07T14:47:42Z</time>
      </trkpt>
      <trkpt lat="43.69042" lon="5.90766">
        <ele>567.40002441406</ele>
        <time>2022-11-07T14:48:17Z</time>
      </trkpt>
      <trkpt lat="43.69035" lon="5.90777">
        <ele>567.20001220703</ele>
        <time>2022-11-07T14:48:51Z</time>
      </trkpt>
      <trkpt lat="43.69036" lon="5.90781">
        <ele>566.40002441406</ele>
        <time>2022-11-07T14:49:26Z</time>
      </trkpt>
      <trkpt lat="43.69034" lon="5.90776">
        <ele>566.59997558594</ele>
        <time>2022-11-07T14:50:09Z</time>
      </trkpt>
      <trkpt lat="43.69039" lon="5.90773">
        <ele>566.59997558594</ele>
        <time>2022-11-07T14:50:49Z</time>
      </trkpt>
      <trkpt lat="43.69042" lon="5.90764">
        <ele>566.59997558594</ele>
        <time>2022-11-07T14:51:19Z</time>
      </trkpt>
      <trkpt lat="43.6904" lon="5.9077">
        <ele>566.40002441406</ele>
        <time>2022-11-07T14:52:04Z</time>
      </trkpt>
      <trkpt lat="43.69032" lon="5.90773">
        <ele>566.40002441406</ele>
        <time>2022-11-07T14:52:42Z</time>
      </trkpt>
      <trkpt lat="43.69031" lon="5.90771">
        <ele>566.20001220703</ele>
        <time>2022-11-07T14:53:16Z</time>
      </trkpt>
      <trkpt lat="43.69026" lon="5.90771">
        <ele>565</ele>
        <time>2022-11-07T14:53:39Z</time>
      </trkpt>
      <trkpt lat="43.69015" lon="5.90774">
        <ele>563.79998779297</ele>
        <time>2022-11-07T14:53:51Z</time>
      </trkpt>
      <trkpt lat="43.69013" lon="5.90774">
        <ele>563.59997558594</ele>
        <time>2022-11-07T14:53:53Z</time>
      </trkpt>
      <trkpt lat="43.68997" lon="5.9078">
        <ele>562.20001220703</ele>
        <time>2022-11-07T14:54:13Z</time>
      </trkpt>
      <trkpt lat="43.68986" lon="5.90789">
        <ele>559.40002441406</ele>
        <time>2022-11-07T14:54:37Z</time>
      </trkpt>
      <trkpt lat="43.68974" lon="5.90807">
        <ele>557.79998779297</ele>
        <time>2022-11-07T14:55:01Z</time>
      </trkpt>
      <trkpt lat="43.68962" lon="5.90827">
        <ele>556.20001220703</ele>
        <time>2022-11-07T14:55:20Z</time>
      </trkpt>
      <trkpt lat="43.68955" lon="5.90849">
        <ele>554.59997558594</ele>
        <time>2022-11-07T14:55:43Z</time>
      </trkpt>
      <trkpt lat="43.68954" lon="5.90855">
        <ele>554.40002441406</ele>
        <time>2022-11-07T14:55:59Z</time>
      </trkpt>
      <trkpt lat="43.68945" lon="5.90873">
        <ele>554.20001220703</ele>
        <time>2022-11-07T14:56:25Z</time>
      </trkpt>
      <trkpt lat="43.68943" lon="5.90875">
        <ele>554</ele>
        <time>2022-11-07T14:56:34Z</time>
      </trkpt>
      <trkpt lat="43.68943" lon="5.90875">
        <ele>554</ele>
        <time>2022-11-07T14:56:41Z</time>
      </trkpt>
      <trkpt lat="43.68943" lon="5.90874">
        <ele>554</ele>
        <time>2022-11-07T14:56:44Z</time>
      </trkpt>
    </trkseg>
  </trk>
</gpx>